
Distance (Route):
Temperature : 9.8°C
Humidity : 26.3%
Pressure : 0hPa| Receiver | Frames | First received | Last received |
|---|---|---|---|
| KE7DJD | 387 | 2026-08-31 23:05:25 | 2026-09-01 01:20:20 |
| Receiver | Date | Latitude | Longitude | Direction | Speed | Altitude | Climb | Temperature | Humidity | Pressure | Voltage | Killtimer | Uptime | BKT | XDATA |
|---|---|---|---|---|---|---|---|---|---|---|---|---|---|---|---|
| KE7DJD | 2026-09-01 01:20:20 | 43.95127 | -115.90027 | 47° | 5km/h | 3122m | -6.9m/s | 9.8°C | 26.3% | 0hPa | 0V | 07:53:00 | 00:00:00 | 00:00:00 | |
| KE7DJD | 2026-09-01 01:20:00 | 43.95099 | -115.90099 | 55° | 20km/h | 3237m | -4.9m/s | 9.2°C | 25.8% | 0hPa | 0V | 07:54:00 | 00:00:00 | 00:00:00 | |
| KE7DJD | 2026-09-01 01:19:39 | 43.95058 | -115.90233 | 70° | 22km/h | 3350m | -5.8m/s | 8.5°C | 31.6% | 0hPa | 0V | 07:54:00 | 00:00:00 | 00:00:00 | |
| KE7DJD | 2026-09-01 01:19:19 | 43.95020 | -115.90387 | 74° | 26km/h | 3467m | -6.0m/s | 7.4°C | 32.9% | 0hPa | 0V | 07:55:00 | 00:00:00 | 00:00:00 | |
| KE7DJD | 2026-09-01 01:18:58 | 43.94981 | -115.90568 | 74° | 26km/h | 3595m | -6.1m/s | 6.2°C | 35.7% | 0hPa | 0V | 07:55:00 | 00:00:00 | 00:00:00 | |
| KE7DJD | 2026-09-01 01:18:37 | 43.94937 | -115.90757 | 72° | 27km/h | 3721m | -5.9m/s | 5.0°C | 39.3% | 0hPa | 0V | 07:56:00 | 00:00:00 | 00:00:00 | |
| KE7DJD | 2026-09-01 01:18:16 | 43.94890 | -115.90961 | 74° | 29km/h | 3847m | -6.1m/s | 4.1°C | 40.9% | 0hPa | 0V | 07:56:00 | 00:00:00 | 00:00:00 | |
| KE7DJD | 2026-09-01 01:17:34 | 43.94787 | -115.91413 | 72° | 38km/h | 4101m | -6.4m/s | 1.9°C | 54.3% | 0hPa | 0V | 07:56:00 | 00:00:00 | 00:00:00 | |
| KE7DJD | 2026-09-01 01:17:14 | 43.94720 | -115.91656 | 67° | 37km/h | 4224m | -6.3m/s | 1.0°C | 49.5% | 0hPa | 0V | 07:56:00 | 00:00:00 | 00:00:00 | |
| KE7DJD | 2026-09-01 01:16:53 | 43.94630 | -115.91885 | 58° | 35km/h | 4356m | -7.5m/s | -0.1°C | 39.9% | 0hPa | 0V | 07:57:00 | 00:00:00 | 00:00:00 | |
| KE7DJD | 2026-09-01 01:16:34 | 43.94525 | -115.92084 | 53° | 37km/h | 4487m | -6.5m/s | -1.1°C | 35.0% | 0hPa | 0V | 07:57:00 | 00:00:00 | 00:00:00 | |
| KE7DJD | 2026-09-01 01:16:12 | 43.94393 | -115.92289 | 46° | 38km/h | 4624m | -6.3m/s | -2.0°C | 29.6% | 0hPa | 0V | 07:57:00 | 00:00:00 | 00:00:00 | |
| KE7DJD | 2026-09-01 01:15:52 | 43.94245 | -115.92467 | 36° | 38km/h | 4755m | -6.5m/s | -3.0°C | 28.5% | 0hPa | 0V | 07:58:00 | 00:00:00 | 00:00:00 | |
| KE7DJD | 2026-09-01 01:15:32 | 43.94074 | -115.92623 | 33° | 37km/h | 4888m | -6.4m/s | -4.2°C | 29.8% | 0hPa | 0V | 07:58:00 | 00:00:00 | 00:00:00 | |
| KE7DJD | 2026-09-01 01:15:10 | 43.93913 | -115.92769 | 36° | 33km/h | 5023m | -6.5m/s | -4.9°C | 23.3% | 0hPa | 0V | 07:59:00 | 00:00:00 | 00:00:00 | |
| KE7DJD | 2026-09-01 01:14:49 | 43.93783 | -115.92881 | 31° | 27km/h | 5159m | -6.8m/s | -5.7°C | 21.7% | 0hPa | 0V | 07:59:00 | 00:00:00 | 00:00:00 | |
| KE7DJD | 2026-09-01 01:14:28 | 43.93662 | -115.92943 | 12° | 24km/h | 5296m | -6.5m/s | -6.5°C | 23.7% | 0hPa | 0V | 07:59:00 | 00:00:00 | 00:00:00 | |
| KE7DJD | 2026-09-01 01:14:08 | 43.93536 | -115.92956 | 2° | 26km/h | 5425m | -6.5m/s | -7.5°C | 25.8% | 0hPa | 0V | 08:00:00 | 00:00:00 | 00:00:00 | |
| KE7DJD | 2026-09-01 01:13:47 | 43.93407 | -115.92956 | 359° | 24km/h | 5563m | -6.9m/s | -8.9°C | 29.9% | 0hPa | 0V | 08:00:00 | 00:00:00 | 00:00:00 | |
| KE7DJD | 2026-09-01 01:13:26 | 43.93275 | -115.92959 | 8° | 26km/h | 5708m | -6.9m/s | -10.2°C | 28.7% | 0hPa | 0V | 08:01:00 | 00:00:00 | 00:00:00 | |
| KE7DJD | 2026-09-01 01:13:05 | 43.93147 | -115.93005 | 25° | 24km/h | 5853m | -7.2m/s | -11.1°C | 19.7% | 0hPa | 0V | 08:01:00 | 00:00:00 | 00:00:00 | |
| KE7DJD | 2026-09-01 01:12:45 | 43.93049 | -115.93091 | 41° | 24km/h | 5991m | -7.0m/s | -12.0°C | 17.6% | 0hPa | 0V | 08:01:00 | 00:00:00 | 00:00:00 | |
| KE7DJD | 2026-09-01 01:12:26 | 43.92970 | -115.93215 | 52° | 24km/h | 6129m | -6.6m/s | -12.9°C | 29.0% | 0hPa | 0V | 08:02:00 | 00:00:00 | 00:00:00 | |
| KE7DJD | 2026-09-01 01:12:04 | 43.92882 | -115.93363 | 51° | 27km/h | 6272m | -6.8m/s | -14.1°C | 45.3% | 0hPa | 0V | 08:02:00 | 00:00:00 | 00:00:00 | |
| KE7DJD | 2026-09-01 01:11:43 | 43.92782 | -115.93517 | 45° | 31km/h | 6415m | -6.7m/s | -15.3°C | 57.0% | 0hPa | 0V | 08:02:00 | 00:00:00 | 00:00:00 | |
| KE7DJD | 2026-09-01 01:11:24 | 43.92654 | -115.93652 | 38° | 35km/h | 6552m | -6.5m/s | -16.5°C | 62.7% | 0hPa | 0V | 08:02:00 | 00:00:00 | 00:00:00 | |
| KE7DJD | 2026-09-01 01:11:02 | 43.92519 | -115.93816 | 46° | 35km/h | 6696m | -6.8m/s | -17.7°C | 65.1% | 0hPa | 0V | 08:02:00 | 00:00:00 | 00:00:00 | |
| KE7DJD | 2026-09-01 01:10:41 | 43.92402 | -115.94009 | 53° | 35km/h | 6843m | -7.5m/s | -18.8°C | 64.0% | 0hPa | 0V | 08:03:00 | 00:00:00 | 00:00:00 | |
| KE7DJD | 2026-09-01 01:10:21 | 43.92288 | -115.94201 | 46° | 35km/h | 6991m | -6.9m/s | -19.7°C | 69.1% | 0hPa | 0V | 08:03:00 | 00:00:00 | 00:00:00 | |
| KE7DJD | 2026-09-01 01:09:59 | 43.92135 | -115.94336 | 29° | 37km/h | 7141m | -7.4m/s | -19.4°C | 24.8% | 0hPa | 0V | 08:04:00 | 00:00:00 | 00:00:00 | |
| KE7DJD | 2026-09-01 01:09:40 | 43.91973 | -115.94466 | 35° | 38km/h | 7287m | -7.3m/s | -20.5°C | 13.4% | 0hPa | 0V | 08:04:00 | 00:00:00 | 00:00:00 | |
| KE7DJD | 2026-09-01 01:09:18 | 43.91812 | -115.94615 | 31° | 35km/h | 7441m | -6.9m/s | -21.7°C | 13.7% | 0hPa | 0V | 08:04:00 | 00:00:00 | 00:00:00 | |
| KE7DJD | 2026-09-01 01:08:57 | 43.91657 | -115.94736 | 27° | 31km/h | 7597m | -7.9m/s | -22.6°C | 12.0% | 0hPa | 0V | 08:05:00 | 00:00:00 | 00:00:00 | |
| KE7DJD | 2026-09-01 01:08:37 | 43.91515 | -115.94818 | 28° | 29km/h | 7747m | -7.8m/s | -23.6°C | 16.1% | 0hPa | 0V | 08:05:00 | 00:00:00 | 00:00:00 | |
| KE7DJD | 2026-09-01 01:08:17 | 43.91386 | -115.94910 | 30° | 26km/h | 7907m | -7.9m/s | -25.0°C | 20.1% | 0hPa | 0V | 08:06:00 | 00:00:00 | 00:00:00 | |
| KE7DJD | 2026-09-01 01:07:55 | 43.91271 | -115.94992 | 22° | 24km/h | 8066m | -7.3m/s | -26.5°C | 26.4% | 0hPa | 0V | 08:06:00 | 00:00:00 | 00:00:00 | |
| KE7DJD | 2026-09-01 01:07:36 | 43.91161 | -115.95032 | 11° | 22km/h | 8215m | -7.3m/s | -27.6°C | 31.4% | 0hPa | 0V | 08:06:00 | 00:00:00 | 00:00:00 | |
| KE7DJD | 2026-09-01 01:07:15 | 43.91035 | -115.95023 | 352° | 24km/h | 8377m | -7.7m/s | -29.0°C | 34.6% | 0hPa | 0V | 08:07:00 | 00:00:00 | 00:00:00 | |
| KE7DJD | 2026-09-01 01:06:54 | 43.90910 | -115.94972 | 340° | 26km/h | 8540m | -8.0m/s | -30.5°C | 39.0% | 0hPa | 0V | 08:07:00 | 00:00:00 | 00:00:00 | |
| KE7DJD | 2026-09-01 01:06:33 | 43.90777 | -115.94897 | 339° | 31km/h | 8698m | -8.2m/s | -31.8°C | 36.8% | 0hPa | 0V | 08:07:00 | 00:00:00 | 00:00:00 | |
| KE7DJD | 2026-09-01 01:06:13 | 43.90627 | -115.94827 | 345° | 31km/h | 8867m | -7.9m/s | -33.1°C | 30.7% | 0hPa | 0V | 08:07:00 | 00:00:00 | 00:00:00 | |
| KE7DJD | 2026-09-01 01:05:52 | 43.90485 | -115.94771 | 345° | 29km/h | 9025m | -8.0m/s | -34.5°C | 34.8% | 0hPa | 0V | 08:08:00 | 00:00:00 | 00:00:00 | |
| KE7DJD | 2026-09-01 01:05:31 | 43.90347 | -115.94732 | 355° | 24km/h | 9194m | -8.1m/s | -36.2°C | 36.8% | 0hPa | 0V | 08:08:00 | 00:00:00 | 00:00:00 | |
| KE7DJD | 2026-09-01 01:05:11 | 43.90235 | -115.94725 | 359° | 22km/h | 9355m | -8.1m/s | -37.5°C | 33.5% | 0hPa | 0V | 08:08:00 | 00:00:00 | 00:00:00 | |
| KE7DJD | 2026-09-01 01:04:51 | 43.90138 | -115.94730 | 360° | 16km/h | 9516m | -8.1m/s | -38.9°C | 29.5% | 0hPa | 0V | 08:09:00 | 00:00:00 | 00:00:00 | |
| KE7DJD | 2026-09-01 01:04:30 | 43.90047 | -115.94701 | 335° | 20km/h | 9684m | -8.1m/s | -39.8°C | 26.5% | 0hPa | 0V | 08:09:00 | 00:00:00 | 00:00:00 | |
| KE7DJD | 2026-09-01 01:04:10 | 43.89952 | -115.94625 | 327° | 20km/h | 9849m | -9.0m/s | -41.2°C | 43.5% | 0hPa | 0V | 08:10:00 | 00:00:00 | 00:00:00 | |
| KE7DJD | 2026-09-01 01:03:49 | 43.89866 | -115.94536 | 323° | 20km/h | 10023m | -8.4m/s | -42.3°C | 18.8% | 0hPa | 0V | 08:10:00 | 00:00:00 | 00:00:00 | |
| KE7DJD | 2026-09-01 01:03:28 | 43.89772 | -115.94423 | 314° | 27km/h | 10199m | -7.9m/s | -43.8°C | 26.5% | 0hPa | 0V | 08:10:00 | 00:00:00 | 00:00:00 | |
| KE7DJD | 2026-09-01 01:03:07 | 43.89677 | -115.94294 | 318° | 24km/h | 10374m | -8.5m/s | -45.5°C | 32.1% | 0hPa | 0V | 08:11:00 | 00:00:00 | 00:00:00 | |
| KE7DJD | 2026-09-01 01:02:46 | 43.89577 | -115.94154 | 315° | 31km/h | 10548m | -8.4m/s | -47.1°C | 35.6% | 0hPa | 0V | 08:11:00 | 00:00:00 | 00:00:00 | |
| KE7DJD | 2026-09-01 01:02:26 | 43.89466 | -115.94023 | 323° | 26km/h | 10717m | -8.0m/s | -48.2°C | 18.4% | 0hPa | 0V | 08:12:00 | 00:00:00 | 00:00:00 | |
| KE7DJD | 2026-09-01 01:02:05 | 43.89362 | -115.93929 | 328° | 22km/h | 10899m | -8.5m/s | -49.5°C | 19.3% | 0hPa | 0V | 08:12:00 | 00:00:00 | 00:00:00 | |
| KE7DJD | 2026-09-01 01:01:44 | 43.89223 | -115.93858 | 346° | 33km/h | 11083m | -8.9m/s | -50.6°C | 21.7% | 0hPa | 0V | 08:12:00 | 00:00:00 | 00:00:00 | |
| KE7DJD | 2026-09-01 01:01:23 | 43.89060 | -115.93787 | 343° | 31km/h | 11268m | -9.0m/s | -51.9°C | 22.7% | 0hPa | 0V | 08:13:00 | 00:00:00 | 00:00:00 | |
| KE7DJD | 2026-09-01 01:01:03 | 43.88907 | -115.93743 | 355° | 33km/h | 11449m | -9.2m/s | -52.6°C | 22.6% | 0hPa | 0V | 08:13:00 | 00:00:00 | 00:00:00 | |
| KE7DJD | 2026-09-01 01:00:42 | 43.88718 | -115.93699 | 349° | 38km/h | 11642m | -9.5m/s | -53.9°C | 23.8% | 0hPa | 0V | 08:13:00 | 00:00:00 | 00:00:00 | |
| KE7DJD | 2026-09-01 01:00:22 | 43.88535 | -115.93620 | 341° | 38km/h | 11831m | -9.8m/s | -55.0°C | 22.8% | 0hPa | 0V | 08:13:00 | 00:00:00 | 00:00:00 | |
| KE7DJD | 2026-09-01 01:00:01 | 43.88328 | -115.93588 | 360° | 40km/h | 12032m | -9.8m/s | -55.8°C | 20.5% | 0hPa | 0V | 08:13:00 | 00:00:00 | 00:00:00 | |
| KE7DJD | 2026-09-01 00:59:40 | 43.88113 | -115.93568 | 357° | 37km/h | 12234m | -10.0m/s | -56.2°C | 17.0% | 0hPa | 0V | 08:14:00 | 00:00:00 | 00:00:00 | |
| KE7DJD | 2026-09-01 00:59:19 | 43.87931 | -115.93570 | 5° | 37km/h | 12449m | -9.9m/s | -57.5°C | 13.5% | 0hPa | 0V | 08:14:00 | 00:00:00 | 00:00:00 | |
| KE7DJD | 2026-09-01 00:58:58 | 43.87704 | -115.93625 | 10° | 57km/h | 12649m | -10.0m/s | -56.8°C | 9.5% | 0hPa | 0V | 08:15:00 | 00:00:00 | 00:00:00 | |
| KE7DJD | 2026-09-01 00:58:37 | 43.87435 | -115.93691 | 13° | 53km/h | 12863m | -10.4m/s | -57.9°C | 7.7% | 0hPa | 0V | 08:15:00 | 00:00:00 | 00:00:00 | |
| KE7DJD | 2026-09-01 00:58:17 | 43.87206 | -115.93790 | 31° | 40km/h | 13068m | -10.4m/s | -56.7°C | 5.8% | 0hPa | 0V | 08:15:00 | 00:00:00 | 00:00:00 | |
| KE7DJD | 2026-09-01 00:57:57 | 43.87010 | -115.93941 | 28° | 47km/h | 13276m | -10.4m/s | -57.0°C | 5.3% | 0hPa | 0V | 08:16:00 | 00:00:00 | 00:00:00 | |
| KE7DJD | 2026-09-01 00:57:37 | 43.86796 | -115.94093 | 35° | 51km/h | 13493m | -12.3m/s | -57.1°C | 4.5% | 0hPa | 0V | 08:16:00 | 00:00:00 | 00:00:00 | |
| KE7DJD | 2026-09-01 00:57:17 | 43.86577 | -115.94275 | 28° | 51km/h | 13749m | -12.0m/s | -57.3°C | 3.9% | 0hPa | 0V | 08:17:00 | 00:00:00 | 00:00:00 | |
| KE7DJD | 2026-09-01 00:56:56 | 43.86338 | -115.94543 | 52° | 62km/h | 13977m | -10.9m/s | -57.7°C | 3.7% | 0hPa | 0V | 08:17:00 | 00:00:00 | 00:00:00 | |
| KE7DJD | 2026-09-01 00:56:35 | 43.86135 | -115.94871 | 45° | 57km/h | 14208m | -11.4m/s | -57.0°C | 2.8% | 0hPa | 0V | 08:17:00 | 00:00:00 | 00:00:00 | |
| KE7DJD | 2026-09-01 00:56:14 | 43.85955 | -115.95162 | 52° | 46km/h | 14445m | -11.4m/s | -57.4°C | 2.4% | 0hPa | 0V | 08:18:00 | 00:00:00 | 00:00:00 | |
| KE7DJD | 2026-09-01 00:55:52 | 43.85789 | -115.95395 | 40° | 44km/h | 14696m | -11.7m/s | -57.8°C | 2.3% | 0hPa | 0V | 08:18:00 | 00:00:00 | 00:00:00 | |
| KE7DJD | 2026-09-01 00:55:32 | 43.85609 | -115.95623 | 48° | 58km/h | 14984m | -14.6m/s | -57.1°C | 2.0% | 0hPa | 0V | 08:19:00 | 00:00:00 | 00:00:00 | |
| KE7DJD | 2026-09-01 00:55:11 | 43.85414 | -115.95919 | 45° | 55km/h | 15276m | -14.2m/s | -56.9°C | 1.9% | 0hPa | 0V | 08:19:00 | 00:00:00 | 00:00:00 | |
| KE7DJD | 2026-09-01 00:54:51 | 43.85226 | -115.96201 | 54° | 53km/h | 15614m | -18.7m/s | -57.0°C | 1.8% | 0hPa | 0V | 08:19:00 | 00:00:00 | 00:00:00 | |
| KE7DJD | 2026-09-01 00:54:31 | 43.85079 | -115.96506 | 58° | 55km/h | 15933m | -17.1m/s | -57.8°C | 1.9% | 0hPa | 0V | 08:19:00 | 00:00:00 | 00:00:00 | |
| KE7DJD | 2026-09-01 00:54:12 | 43.84940 | -115.96775 | 49° | 47km/h | 16245m | -15.5m/s | -57.0°C | 1.7% | 0hPa | 0V | 08:19:00 | 00:00:00 | 00:00:00 | |
| KE7DJD | 2026-09-01 00:53:50 | 43.84750 | -115.97030 | 53° | 53km/h | 16614m | -19.5m/s | -57.7°C | 1.6% | 0hPa | 0V | 08:20:00 | 00:00:00 | 00:00:00 | |
| KE7DJD | 2026-09-01 00:53:29 | 43.84615 | -115.97346 | 62° | 44km/h | 17025m | -19.8m/s | -57.4°C | 1.6% | 0hPa | 0V | 08:20:00 | 00:00:00 | 00:00:00 | |
| KE7DJD | 2026-09-01 00:53:09 | 43.84522 | -115.97565 | 53° | 35km/h | 17359m | -16.8m/s | -54.8°C | 1.3% | 0hPa | 0V | 08:20:00 | 00:00:00 | 00:00:00 | |
| KE7DJD | 2026-09-01 00:52:49 | 43.84346 | -115.97820 | 62° | 58km/h | 17732m | -17.8m/s | -54.8°C | 1.3% | 0hPa | 0V | 08:21:00 | 00:00:00 | 00:00:00 | |
| KE7DJD | 2026-09-01 00:52:28 | 43.84270 | -115.98076 | 57° | 24km/h | 18094m | -16.2m/s | -54.1°C | 1.2% | 0hPa | 0V | 08:21:00 | 00:00:00 | 00:00:00 | |
| KE7DJD | 2026-09-01 00:52:08 | 43.84172 | -115.98164 | 55° | 35km/h | 18460m | -17.2m/s | -55.3°C | 1.3% | 0hPa | 0V | 08:22:00 | 00:00:00 | 00:00:00 | |
| KE7DJD | 2026-09-01 00:51:47 | 43.84123 | -115.98315 | 88° | 16km/h | 18836m | -16.9m/s | -54.2°C | 1.2% | 0hPa | 0V | 08:22:00 | 00:00:00 | 00:00:00 | |
| KE7DJD | 2026-09-01 00:51:27 | 43.84111 | -115.98397 | 27° | 18km/h | 19230m | -20.7m/s | -55.3°C | 1.3% | 0hPa | 0V | 08:22:00 | 00:00:00 | 00:00:00 | |
| KE7DJD | 2026-09-01 00:51:06 | 43.83990 | -115.98509 | 31° | 26km/h | 19632m | -19.4m/s | -55.3°C | 1.3% | 0hPa | 0V | 08:23:00 | 00:00:00 | 00:00:00 | |
| KE7DJD | 2026-09-01 00:50:46 | 43.83918 | -115.98501 | 336° | 22km/h | 20021m | -18.1m/s | -55.9°C | 1.3% | 0hPa | 0V | 08:23:00 | 00:00:00 | 00:00:00 | |
| KE7DJD | 2026-09-01 00:50:26 | 43.83737 | -115.98450 | 6° | 42km/h | 20453m | -22.0m/s | -57.8°C | 1.5% | 0hPa | 0V | 08:24:00 | 00:00:00 | 00:00:00 | |
| KE7DJD | 2026-09-01 00:50:04 | 43.83632 | -115.98566 | 56° | 20km/h | 20932m | -20.3m/s | -56.1°C | 1.3% | 0hPa | 0V | 08:24:00 | 00:00:00 | 00:00:00 | |
| KE7DJD | 2026-09-01 00:49:43 | 43.83564 | -115.98691 | 81° | 24km/h | 21383m | -19.8m/s | -55.1°C | 1.2% | 0hPa | 0V | 08:24:00 | 00:00:00 | 00:00:00 | |
| KE7DJD | 2026-09-01 00:49:22 | 43.83562 | -115.98799 | 36° | 9km/h | 21822m | -21.9m/s | -52.0°C | 1.0% | 0hPa | 0V | 08:24:00 | 00:00:00 | 00:00:00 | |
| KE7DJD | 2026-09-01 00:49:02 | 43.83496 | -115.98908 | 106° | 7km/h | 22278m | -24.6m/s | -50.5°C | 0.9% | 0hPa | 0V | 08:24:00 | 00:00:00 | 00:00:00 | |
| KE7DJD | 2026-09-01 00:48:42 | 43.83479 | -115.98830 | 313° | 27km/h | 22802m | -27.1m/s | -49.7°C | 0.8% | 0hPa | 0V | 08:25:00 | 00:00:00 | 00:00:00 | |
| KE7DJD | 2026-09-01 00:48:21 | 43.83369 | -115.98784 | 10° | 16km/h | 23275m | -22.6m/s | -51.2°C | 0.9% | 0hPa | 0V | 08:25:00 | 00:00:00 | 00:00:00 | |
| KE7DJD | 2026-09-01 00:48:02 | 43.83319 | -115.98774 | 8° | 9km/h | 23750m | -25.2m/s | -51.5°C | 0.9% | 0hPa | 0V | 08:26:00 | 00:00:00 | 00:00:00 | |
| KE7DJD | 2026-09-01 00:47:41 | 43.83247 | -115.98793 | 40° | 15km/h | 24278m | -26.9m/s | -51.3°C | 0.9% | 0hPa | 0V | 08:26:00 | 00:00:00 | 00:00:00 | |
| KE7DJD | 2026-09-01 00:47:20 | 43.83231 | -115.98888 | 44° | 4km/h | 24912m | -30.2m/s | -51.2°C | 0.9% | 0hPa | 0V | 08:26:00 | 00:00:00 | 00:00:00 | |
| KE7DJD | 2026-09-01 00:47:00 | 43.83278 | -115.98942 | 205° | 11km/h | 25493m | -32.1m/s | -51.4°C | 0.9% | 0hPa | 0V | 08:27:00 | 00:00:00 | 00:00:00 | |
| KE7DJD | 2026-09-01 00:46:39 | 43.83330 | -115.98988 | 226° | 7km/h | 26131m | -27.0m/s | -51.1°C | 1.0% | 0hPa | 0V | 08:27:00 | 00:00:00 | 00:00:00 | |
| KE7DJD | 2026-09-01 00:46:19 | 43.83312 | -115.99004 | 31° | 15km/h | 26680m | -27.8m/s | -49.2°C | 0.9% | 0hPa | 0V | 08:28:00 | 00:00:00 | 00:00:00 | |
| KE7DJD | 2026-09-01 00:45:58 | 43.83248 | -115.99022 | 356° | 9km/h | 27298m | -25.4m/s | -46.8°C | 0.8% | 0hPa | 0V | 08:28:00 | 00:00:00 | 00:00:00 | |
| KE7DJD | 2026-09-01 00:45:37 | 43.83261 | -115.98943 | 273° | 20km/h | 27894m | -30.4m/s | -44.4°C | 0.6% | 0hPa | 0V | 08:28:00 | 00:00:00 | 00:00:00 | |
| KE7DJD | 2026-09-01 00:45:18 | 43.83246 | -115.98905 | 0° | 0km/h | 28527m | -36.2m/s | -45.5°C | 0.7% | 0hPa | 0V | 08:29:00 | 00:00:00 | 00:00:00 | |
| KE7DJD | 2026-09-01 00:44:56 | 43.83215 | -115.99007 | 106° | 40km/h | 29133m | -28.2m/s | -44.2°C | 0.6% | 0hPa | 0V | 08:29:00 | 00:00:00 | 00:00:00 | |
| KE7DJD | 2026-09-01 00:44:36 | 43.83251 | -115.99021 | 110° | 5km/h | 29536m | -11.6m/s | -42.3°C | 0.5% | 0hPa | 0V | 00:00:00 | 00:00:00 | 00:00:00 | |
| KE7DJD | 2026-09-01 00:44:15 | 43.83324 | -115.98956 | 72° | 26km/h | 29943m | -23.0m/s | -42.6°C | 0.5% | 0hPa | 0V | 00:00:00 | 00:00:00 | 00:00:00 | |
| KE7DJD | 2026-09-01 00:43:54 | 43.83372 | -115.99077 | 242° | 27km/h | 30507m | -26.3m/s | -43.5°C | 0.6% | 0hPa | 0V | 00:00:00 | 00:00:00 | 00:00:00 | |
| KE7DJD | 2026-09-01 00:43:34 | 43.83378 | -115.99049 | 313° | 11km/h | 31173m | -45.4m/s | -42.7°C | 0.6% | 0hPa | 0V | 00:00:00 | 00:00:00 | 00:00:00 | |
| KE7DJD | 2026-09-01 00:43:13 | 43.83344 | -115.98970 | 273° | 11km/h | 31530m | 5.6m/s | -42.2°C | 0.5% | 0hPa | 0V | 00:00:00 | 00:00:00 | 00:00:00 | |
| KE7DJD | 2026-09-01 00:42:52 | 43.83297 | -115.98952 | 134° | 9km/h | 31397m | 5.6m/s | -42.5°C | 0.5% | 0hPa | 0V | 00:00:00 | 00:00:00 | 00:00:00 | |
| KE7DJD | 2026-09-01 00:42:31 | 43.83275 | -115.98843 | 254° | 46km/h | 31264m | 4.8m/s | -42.6°C | 0.5% | 0hPa | 0V | 00:00:00 | 00:00:00 | 00:00:00 | |
| KE7DJD | 2026-09-01 00:42:11 | 43.83286 | -115.98751 | 169° | 5km/h | 31138m | 7.4m/s | -43.6°C | 0.6% | 0hPa | 0V | 00:00:00 | 00:00:00 | 00:00:00 | |
| KE7DJD | 2026-09-01 00:41:50 | 43.83286 | -115.98801 | 100° | 16km/h | 31001m | 6.8m/s | -43.5°C | 0.6% | 0hPa | 0V | 00:00:00 | 00:00:00 | 00:00:00 | |
| KE7DJD | 2026-09-01 00:41:29 | 43.83282 | -115.98844 | 173° | 4km/h | 30866m | 7.4m/s | -43.4°C | 0.6% | 0hPa | 0V | 00:00:00 | 00:00:00 | 00:00:00 | |
| KE7DJD | 2026-09-01 00:41:08 | 43.83280 | -115.98897 | 192° | 11km/h | 30733m | 8.3m/s | -42.8°C | 0.6% | 0hPa | 0V | 00:00:00 | 00:00:00 | 00:00:00 | |
| KE7DJD | 2026-09-01 00:40:48 | 43.83297 | -115.98911 | 343° | 2km/h | 30609m | 5.8m/s | -43.1°C | 0.6% | 0hPa | 0V | 00:00:00 | 00:00:00 | 00:00:00 | |
| KE7DJD | 2026-09-01 00:40:27 | 43.83347 | -115.98932 | 115° | 9km/h | 30480m | 5.4m/s | -43.1°C | 0.6% | 0hPa | 0V | 00:00:00 | 00:00:00 | 00:00:00 | |
| KE7DJD | 2026-09-01 00:40:06 | 43.83440 | -115.98980 | 121° | 5km/h | 30350m | 6.5m/s | -43.9°C | 0.6% | 0hPa | 0V | 00:00:00 | 00:00:00 | 00:00:00 | |
| KE7DJD | 2026-09-01 00:39:46 | 43.83497 | -115.99083 | 176° | 18km/h | 30224m | 4.3m/s | -42.9°C | 0.6% | 0hPa | 0V | 00:00:00 | 00:00:00 | 00:00:00 | |
| KE7DJD | 2026-09-01 00:39:24 | 43.83554 | -115.99249 | 109° | 31km/h | 30101m | 5.0m/s | -42.8°C | 0.6% | 0hPa | 0V | 00:00:00 | 00:00:00 | 00:00:00 | |
| KE7DJD | 2026-09-01 00:39:03 | 43.83640 | -115.99364 | 131° | 20km/h | 29971m | 7.3m/s | -42.3°C | 0.6% | 0hPa | 0V | 00:00:00 | 00:00:00 | 00:00:00 | |
| KE7DJD | 2026-09-01 00:38:43 | 43.83700 | -115.99399 | 176° | 20km/h | 29847m | 7.8m/s | -41.9°C | 0.6% | 0hPa | 0V | 00:00:00 | 00:00:00 | 00:00:00 | |
| KE7DJD | 2026-09-01 00:38:22 | 43.83780 | -115.99407 | 189° | 5km/h | 29715m | 6.5m/s | -41.5°C | 0.6% | 0hPa | 0V | 00:00:00 | 00:00:00 | 00:00:00 | |
| KE7DJD | 2026-09-01 00:38:01 | 43.83858 | -115.99354 | 213° | 24km/h | 29585m | 5.9m/s | -42.0°C | 0.5% | 0hPa | 0V | 00:00:00 | 00:00:00 | 00:00:00 | |
| KE7DJD | 2026-09-01 00:37:41 | 43.83937 | -115.99272 | 313° | 24km/h | 29463m | 6.0m/s | -42.9°C | 0.6% | 0hPa | 0V | 00:00:00 | 00:00:00 | 00:00:00 | |
| KE7DJD | 2026-09-01 00:37:20 | 43.83990 | -115.99281 | 178° | 24km/h | 29335m | 5.1m/s | -43.6°C | 0.6% | 0hPa | 0V | 00:00:00 | 00:00:00 | 00:00:00 | |
| KE7DJD | 2026-09-01 00:37:00 | 43.84036 | -115.99414 | 87° | 37km/h | 29213m | 4.7m/s | -43.4°C | 0.6% | 0hPa | 0V | 00:00:00 | 00:00:00 | 00:00:00 | |
| KE7DJD | 2026-09-01 00:36:40 | 43.84092 | -115.99641 | 109° | 31km/h | 29093m | 4.7m/s | -44.1°C | 0.6% | 0hPa | 0V | 00:00:00 | 00:00:00 | 00:00:00 | |
| KE7DJD | 2026-09-01 00:36:20 | 43.84083 | -115.99859 | 90° | 33km/h | 28976m | 4.7m/s | -44.3°C | 0.6% | 0hPa | 0V | 00:00:00 | 00:00:00 | 00:00:00 | |
| KE7DJD | 2026-09-01 00:35:59 | 43.84063 | -115.99962 | 331° | 31km/h | 28858m | 4.8m/s | -45.7°C | 0.7% | 0hPa | 0V | 00:00:00 | 00:00:00 | 00:00:00 | |
| KE7DJD | 2026-09-01 00:35:38 | 43.83982 | -115.99989 | 357° | 9km/h | 28739m | 7.1m/s | -45.6°C | 0.7% | 0hPa | 0V | 00:00:00 | 00:00:00 | 00:00:00 | |
| KE7DJD | 2026-09-01 00:35:18 | 43.83971 | -115.99938 | 170° | 15km/h | 28626m | 7.0m/s | -45.7°C | 0.7% | 0hPa | 0V | 00:00:00 | 00:00:00 | 00:00:00 | |
| KE7DJD | 2026-09-01 00:34:57 | 43.83984 | -115.99947 | 197° | 22km/h | 28507m | 6.1m/s | -45.3°C | 0.7% | 0hPa | 0V | 00:00:00 | 00:00:00 | 00:00:00 | |
| KE7DJD | 2026-09-01 00:34:36 | 43.83989 | -115.99975 | 111° | 4km/h | 28387m | 6.5m/s | -44.6°C | 0.7% | 0hPa | 0V | 00:00:00 | 00:00:00 | 00:00:00 | |
| KE7DJD | 2026-09-01 00:34:15 | 43.83991 | -116.00008 | 109° | 13km/h | 28266m | 5.0m/s | -44.2°C | 0.6% | 0hPa | 0V | 00:00:00 | 00:00:00 | 00:00:00 | |
| KE7DJD | 2026-09-01 00:33:55 | 43.83957 | -116.00001 | 315° | 20km/h | 28153m | 5.3m/s | -45.3°C | 0.7% | 0hPa | 0V | 00:00:00 | 00:00:00 | 00:00:00 | |
| KE7DJD | 2026-09-01 00:33:34 | 43.83918 | -115.99937 | 294° | 20km/h | 28032m | 4.8m/s | -45.1°C | 0.7% | 0hPa | 0V | 00:00:00 | 00:00:00 | 00:00:00 | |
| KE7DJD | 2026-09-01 00:33:13 | 43.83930 | -115.99832 | 235° | 13km/h | 27911m | 6.0m/s | -45.3°C | 0.7% | 0hPa | 0V | 00:00:00 | 00:00:00 | 00:00:00 | |
| KE7DJD | 2026-09-01 00:32:52 | 43.83944 | -115.99766 | 134° | 13km/h | 27785m | 6.3m/s | -45.3°C | 0.7% | 0hPa | 0V | 00:00:00 | 00:00:00 | 00:00:00 | |
| KE7DJD | 2026-09-01 00:32:32 | 43.83905 | -115.99754 | 27° | 22km/h | 27667m | 6.6m/s | -45.2°C | 0.7% | 0hPa | 0V | 00:00:00 | 00:00:00 | 00:00:00 | |
| KE7DJD | 2026-09-01 00:32:12 | 43.83866 | -115.99767 | 300° | 13km/h | 27548m | 7.1m/s | -46.6°C | 0.7% | 0hPa | 0V | 00:00:00 | 00:00:00 | 00:00:00 | |
| KE7DJD | 2026-09-01 00:31:51 | 43.83795 | -115.99775 | 21° | 24km/h | 27425m | 7.4m/s | -47.7°C | 0.8% | 0hPa | 0V | 00:00:00 | 00:00:00 | 00:00:00 | |
| KE7DJD | 2026-09-01 00:31:30 | 43.83640 | -115.99830 | 353° | 16km/h | 27298m | 6.7m/s | -47.7°C | 0.8% | 0hPa | 0V | 00:00:00 | 00:00:00 | 00:00:00 | |
| KE7DJD | 2026-09-01 00:31:10 | 43.83548 | -115.99840 | 342° | 37km/h | 27178m | 4.9m/s | -49.3°C | 0.8% | 0hPa | 0V | 00:00:00 | 00:00:00 | 00:00:00 | |
| KE7DJD | 2026-09-01 00:30:49 | 43.83443 | -115.99809 | 356° | 22km/h | 27053m | 7.1m/s | -49.4°C | 0.9% | 0hPa | 0V | 00:00:00 | 00:00:00 | 00:00:00 | |
| KE7DJD | 2026-09-01 00:30:28 | 43.83400 | -115.99799 | 11° | 16km/h | 26924m | 7.5m/s | -49.4°C | 0.9% | 0hPa | 0V | 00:00:00 | 00:00:00 | 00:00:00 | |
| KE7DJD | 2026-09-01 00:30:08 | 43.83347 | -115.99808 | 68° | 9km/h | 26802m | 5.0m/s | -49.3°C | 0.9% | 0hPa | 0V | 00:00:00 | 00:00:00 | 00:00:00 | |
| KE7DJD | 2026-09-01 00:29:48 | 43.83261 | -115.99859 | 56° | 7km/h | 26682m | 7.8m/s | -49.2°C | 0.9% | 0hPa | 0V | 00:00:00 | 00:00:00 | 00:00:00 | |
| KE7DJD | 2026-09-01 00:29:28 | 43.83198 | -115.99918 | 35° | 26km/h | 26561m | 5.7m/s | -49.6°C | 0.9% | 0hPa | 0V | 00:00:00 | 00:00:00 | 00:00:00 | |
| KE7DJD | 2026-09-01 00:29:07 | 43.83136 | -115.99932 | 52° | 15km/h | 26432m | 6.4m/s | -49.4°C | 0.9% | 0hPa | 0V | 00:00:00 | 00:00:00 | 00:00:00 | |
| KE7DJD | 2026-09-01 00:28:47 | 43.83123 | -115.99920 | 173° | 7km/h | 26312m | 7.0m/s | -49.4°C | 0.9% | 0hPa | 0V | 00:00:00 | 00:00:00 | 00:00:00 | |
| KE7DJD | 2026-09-01 00:28:26 | 43.83150 | -115.99895 | 167° | 22km/h | 26185m | 5.9m/s | -50.0°C | 0.9% | 0hPa | 0V | 00:00:00 | 00:00:00 | 00:00:00 | |
| KE7DJD | 2026-09-01 00:28:05 | 43.83175 | -115.99907 | 127° | 13km/h | 26062m | 5.9m/s | -50.7°C | 0.9% | 0hPa | 0V | 00:00:00 | 00:00:00 | 00:00:00 | |
| KE7DJD | 2026-09-01 00:27:45 | 43.83212 | -115.99949 | 171° | 20km/h | 25939m | 5.8m/s | -50.4°C | 0.9% | 0hPa | 0V | 00:00:00 | 00:00:00 | 00:00:00 | |
| KE7DJD | 2026-09-01 00:27:24 | 43.83274 | -115.99979 | 140° | 18km/h | 25822m | 6.5m/s | -50.3°C | 1.0% | 0hPa | 0V | 00:00:00 | 00:00:00 | 00:00:00 | |
| KE7DJD | 2026-09-01 00:27:03 | 43.83329 | -116.00023 | 118° | 16km/h | 25700m | 6.8m/s | -50.0°C | 0.9% | 0hPa | 0V | 00:00:00 | 00:00:00 | 00:00:00 | |
| KE7DJD | 2026-09-01 00:26:42 | 43.83360 | -116.00124 | 165° | 13km/h | 25574m | 4.0m/s | -50.3°C | 0.9% | 0hPa | 0V | 00:00:00 | 00:00:00 | 00:00:00 | |
| KE7DJD | 2026-09-01 00:26:21 | 43.83373 | -116.00157 | 186° | 13km/h | 25451m | 6.5m/s | -50.3°C | 1.0% | 0hPa | 0V | 00:00:00 | 00:00:00 | 00:00:00 | |
| KE7DJD | 2026-09-01 00:26:00 | 43.83449 | -116.00152 | 202° | 18km/h | 25327m | 7.1m/s | -50.1°C | 1.0% | 0hPa | 0V | 00:00:00 | 00:00:00 | 00:00:00 | |
| KE7DJD | 2026-09-01 00:25:40 | 43.83527 | -116.00199 | 133° | 29km/h | 25211m | 4.4m/s | -50.0°C | 0.9% | 0hPa | 0V | 00:00:00 | 00:00:00 | 00:00:00 | |
| KE7DJD | 2026-09-01 00:25:19 | 43.83544 | -116.00303 | 121° | 24km/h | 25085m | 5.0m/s | -50.6°C | 0.9% | 0hPa | 0V | 00:00:00 | 00:00:00 | 00:00:00 | |
| KE7DJD | 2026-09-01 00:24:59 | 43.83511 | -116.00384 | 61° | 13km/h | 24965m | 5.1m/s | -50.8°C | 1.0% | 0hPa | 0V | 00:00:00 | 00:00:00 | 00:00:00 | |
| KE7DJD | 2026-09-01 00:24:39 | 43.83504 | -116.00433 | 100° | 16km/h | 24845m | 5.3m/s | -50.8°C | 1.0% | 0hPa | 0V | 00:00:00 | 00:00:00 | 00:00:00 | |
| KE7DJD | 2026-09-01 00:24:18 | 43.83509 | -116.00506 | 97° | 20km/h | 24719m | 4.6m/s | -50.6°C | 1.0% | 0hPa | 0V | 00:00:00 | 00:00:00 | 00:00:00 | |
| KE7DJD | 2026-09-01 00:23:58 | 43.83475 | -116.00606 | 58° | 29km/h | 24599m | 6.6m/s | -50.4°C | 1.0% | 0hPa | 0V | 00:00:00 | 00:00:00 | 00:00:00 | |
| KE7DJD | 2026-09-01 00:23:39 | 43.83414 | -116.00727 | 36° | 16km/h | 24480m | 6.4m/s | -50.4°C | 1.0% | 0hPa | 0V | 00:00:00 | 00:00:00 | 00:00:00 | |
| KE7DJD | 2026-09-01 00:23:17 | 43.83336 | -116.00836 | 44° | 24km/h | 24359m | 6.3m/s | -50.8°C | 1.0% | 0hPa | 0V | 00:00:00 | 00:00:00 | 00:00:00 | |
| KE7DJD | 2026-09-01 00:22:57 | 43.83246 | -116.00894 | 43° | 16km/h | 24236m | 5.4m/s | -51.2°C | 1.0% | 0hPa | 0V | 00:00:00 | 00:00:00 | 00:00:00 | |
| KE7DJD | 2026-09-01 00:22:35 | 43.83138 | -116.00935 | 31° | 22km/h | 24114m | 5.7m/s | -51.7°C | 1.1% | 0hPa | 0V | 00:00:00 | 00:00:00 | 00:00:00 | |
| KE7DJD | 2026-09-01 00:22:15 | 43.83007 | -116.00896 | 343° | 31km/h | 23999m | 6.9m/s | -51.5°C | 1.1% | 0hPa | 0V | 00:00:00 | 00:00:00 | 00:00:00 | |
| KE7DJD | 2026-09-01 00:21:54 | 43.82908 | -116.00829 | 296° | 20km/h | 23891m | 5.8m/s | -51.3°C | 1.0% | 0hPa | 0V | 00:00:00 | 00:00:00 | 00:00:00 | |
| KE7DJD | 2026-09-01 00:21:33 | 43.82841 | -116.00791 | 334° | 16km/h | 23778m | 4.7m/s | -51.0°C | 1.0% | 0hPa | 0V | 00:00:00 | 00:00:00 | 00:00:00 | |
| KE7DJD | 2026-09-01 00:20:52 | 43.82721 | -116.00804 | 22° | 20km/h | 23550m | 4.5m/s | -50.9°C | 1.1% | 0hPa | 0V | 00:00:00 | 00:00:00 | 00:00:00 | |
| KE7DJD | 2026-09-01 00:20:31 | 43.82677 | -116.00772 | 304° | 9km/h | 23435m | 6.0m/s | -50.8°C | 1.0% | 0hPa | 0V | 00:00:00 | 00:00:00 | 00:00:00 | |
| KE7DJD | 2026-09-01 00:20:11 | 43.82642 | -116.00765 | 258° | 5km/h | 23324m | 4.8m/s | -50.8°C | 1.0% | 0hPa | 0V | 00:00:00 | 00:00:00 | 00:00:00 | |
| KE7DJD | 2026-09-01 00:19:50 | 43.82549 | -116.00782 | 350° | 16km/h | 23206m | 5.8m/s | -51.2°C | 1.1% | 0hPa | 0V | 00:00:00 | 00:00:00 | 00:00:00 | |
| KE7DJD | 2026-09-01 00:19:29 | 43.82434 | -116.00748 | 2° | 26km/h | 23090m | 5.3m/s | -50.5°C | 1.0% | 0hPa | 0V | 00:00:00 | 00:00:00 | 00:00:00 | |
| KE7DJD | 2026-09-01 00:19:09 | 43.82332 | -116.00661 | 320° | 18km/h | 22982m | 6.0m/s | -50.1°C | 1.0% | 0hPa | 0V | 00:00:00 | 00:00:00 | 00:00:00 | |
| KE7DJD | 2026-09-01 00:18:49 | 43.82250 | -116.00540 | 321° | 26km/h | 22872m | 4.8m/s | -49.9°C | 1.1% | 0hPa | 0V | 00:00:00 | 00:00:00 | 00:00:00 | |
| KE7DJD | 2026-09-01 00:18:28 | 43.82206 | -116.00367 | 247° | 20km/h | 22758m | 5.5m/s | -49.3°C | 1.0% | 0hPa | 0V | 00:00:00 | 00:00:00 | 00:00:00 | |
| KE7DJD | 2026-09-01 00:18:07 | 43.82204 | -116.00217 | 203° | 9km/h | 22647m | 6.3m/s | -49.4°C | 1.0% | 0hPa | 0V | 00:00:00 | 00:00:00 | 00:00:00 | |
| KE7DJD | 2026-09-01 00:17:46 | 43.82232 | -116.00189 | 181° | 9km/h | 22533m | 6.0m/s | -50.2°C | 1.0% | 0hPa | 0V | 00:00:00 | 00:00:00 | 00:00:00 | |
| KE7DJD | 2026-09-01 00:17:04 | 43.82270 | -116.00260 | 80° | 15km/h | 22305m | 5.4m/s | -50.5°C | 1.0% | 0hPa | 0V | 00:00:00 | 00:00:00 | 00:00:00 | |
| KE7DJD | 2026-09-01 00:16:44 | 43.82247 | -116.00388 | 43° | 15km/h | 22190m | 5.4m/s | -50.6°C | 1.0% | 0hPa | 0V | 00:00:00 | 00:00:00 | 00:00:00 | |
| KE7DJD | 2026-09-01 00:16:22 | 43.82133 | -116.00574 | 31° | 27km/h | 22075m | 5.3m/s | -50.8°C | 1.1% | 0hPa | 0V | 00:00:00 | 00:00:00 | 00:00:00 | |
| KE7DJD | 2026-09-01 00:16:02 | 43.82031 | -116.00699 | 15° | 16km/h | 21964m | 5.5m/s | -51.0°C | 1.1% | 0hPa | 0V | 00:00:00 | 00:00:00 | 00:00:00 | |
| KE7DJD | 2026-09-01 00:15:42 | 43.81973 | -116.00748 | 16° | 11km/h | 21854m | 4.8m/s | -50.9°C | 1.1% | 0hPa | 0V | 00:00:00 | 00:00:00 | 00:00:00 | |
| KE7DJD | 2026-09-01 00:15:21 | 43.81971 | -116.00818 | 130° | 24km/h | 21743m | 4.8m/s | -52.7°C | 1.1% | 0hPa | 0V | 00:00:00 | 00:00:00 | 00:00:00 | |
| KE7DJD | 2026-09-01 00:15:02 | 43.81967 | -116.00903 | 52° | 5km/h | 21639m | 5.9m/s | -54.1°C | 1.2% | 0hPa | 0V | 00:00:00 | 00:00:00 | 00:00:00 | |
| KE7DJD | 2026-09-01 00:14:40 | 43.81992 | -116.00947 | 156° | 13km/h | 21528m | 6.1m/s | -54.3°C | 1.3% | 0hPa | 0V | 00:00:00 | 00:00:00 | 00:00:00 | |
| KE7DJD | 2026-09-01 00:14:19 | 43.82052 | -116.01080 | 114° | 31km/h | 21416m | 5.6m/s | -54.0°C | 1.3% | 0hPa | 0V | 00:00:00 | 00:00:00 | 00:00:00 | |
| KE7DJD | 2026-09-01 00:13:59 | 43.82066 | -116.01266 | 55° | 26km/h | 21306m | 4.7m/s | -53.9°C | 1.3% | 0hPa | 0V | 00:00:00 | 00:00:00 | 00:00:00 | |
| KE7DJD | 2026-09-01 00:13:38 | 43.82043 | -116.01416 | 52° | 18km/h | 21202m | 5.4m/s | -54.1°C | 1.2% | 0hPa | 0V | 00:00:00 | 00:00:00 | 00:00:00 | |
| KE7DJD | 2026-09-01 00:13:17 | 43.81997 | -116.01521 | 68° | 22km/h | 21095m | 5.5m/s | -54.9°C | 1.3% | 0hPa | 0V | 00:00:00 | 00:00:00 | 00:00:00 | |
| KE7DJD | 2026-09-01 00:12:56 | 43.81932 | -116.01620 | 32° | 16km/h | 20987m | 5.1m/s | -55.3°C | 1.3% | 0hPa | 0V | 00:00:00 | 00:00:00 | 00:00:00 | |
| KE7DJD | 2026-09-01 00:12:35 | 43.81900 | -116.01752 | 82° | 18km/h | 20877m | 3.9m/s | -56.3°C | 1.3% | 0hPa | 0V | 00:00:00 | 00:00:00 | 00:00:00 | |
| KE7DJD | 2026-09-01 00:12:14 | 43.81837 | -116.01979 | 60° | 42km/h | 20768m | 5.5m/s | -57.7°C | 1.5% | 0hPa | 0V | 00:00:00 | 00:00:00 | 00:00:00 | |
| KE7DJD | 2026-09-01 00:11:54 | 43.81742 | -116.02129 | 37° | 35km/h | 20661m | 6.7m/s | -57.8°C | 1.5% | 0hPa | 0V | 00:00:00 | 00:00:00 | 00:00:00 | |
| KE7DJD | 2026-09-01 00:11:34 | 43.81592 | -116.02211 | 6° | 33km/h | 20547m | 4.6m/s | -57.4°C | 1.4% | 0hPa | 0V | 00:00:00 | 00:00:00 | 00:00:00 | |
| KE7DJD | 2026-09-01 00:11:13 | 43.81383 | -116.02239 | 348° | 44km/h | 20441m | 4.4m/s | -57.9°C | 1.6% | 0hPa | 0V | 00:00:00 | 00:00:00 | 00:00:00 | |
| KE7DJD | 2026-09-01 00:10:52 | 43.81205 | -116.02205 | 361° | 29km/h | 20336m | 5.0m/s | -57.3°C | 1.5% | 0hPa | 0V | 00:00:00 | 00:00:00 | 00:00:00 | |
| KE7DJD | 2026-09-01 00:10:33 | 43.81075 | -116.02208 | 21° | 15km/h | 20231m | 5.4m/s | -56.9°C | 1.5% | 0hPa | 0V | 00:00:00 | 00:00:00 | 00:00:00 | |
| KE7DJD | 2026-09-01 00:10:12 | 43.80987 | -116.02191 | 2° | 15km/h | 20124m | 4.9m/s | -56.8°C | 1.4% | 0hPa | 0V | 00:00:00 | 00:00:00 | 00:00:00 | |
| KE7DJD | 2026-09-01 00:09:51 | 43.80954 | -116.02179 | 105° | 5km/h | 20022m | 5.1m/s | -57.2°C | 1.5% | 0hPa | 0V | 00:00:00 | 00:00:00 | 00:00:00 | |
| KE7DJD | 2026-09-01 00:09:31 | 43.80929 | -116.02234 | 36° | 15km/h | 19923m | 5.3m/s | -56.8°C | 1.5% | 0hPa | 0V | 00:00:00 | 00:00:00 | 00:00:00 | |
| KE7DJD | 2026-09-01 00:09:10 | 43.80854 | -116.02321 | 50° | 26km/h | 19822m | 5.8m/s | -56.4°C | 1.5% | 0hPa | 0V | 00:00:00 | 00:00:00 | 00:00:00 | |
| KE7DJD | 2026-09-01 00:08:50 | 43.80763 | -116.02431 | 67° | 27km/h | 19724m | 4.2m/s | -56.2°C | 1.4% | 0hPa | 0V | 00:00:00 | 00:00:00 | 00:00:00 | |
| KE7DJD | 2026-09-01 00:08:29 | 43.80627 | -116.02637 | 34° | 40km/h | 19617m | 4.8m/s | -55.9°C | 1.4% | 0hPa | 0V | 00:00:00 | 00:00:00 | 00:00:00 | |
| KE7DJD | 2026-09-01 00:08:08 | 43.80491 | -116.02789 | 32° | 40km/h | 19513m | 5.9m/s | -55.7°C | 1.4% | 0hPa | 0V | 00:00:00 | 00:00:00 | 00:00:00 | |
| KE7DJD | 2026-09-01 00:07:48 | 43.80353 | -116.02859 | 12° | 22km/h | 19414m | 3.6m/s | -56.3°C | 1.5% | 0hPa | 0V | 00:00:00 | 00:00:00 | 00:00:00 | |
| KE7DJD | 2026-09-01 00:07:28 | 43.80241 | -116.02942 | 16° | 13km/h | 19307m | 5.8m/s | -55.9°C | 1.4% | 0hPa | 0V | 00:00:00 | 00:00:00 | 00:00:00 | |
| KE7DJD | 2026-09-01 00:07:07 | 43.80188 | -116.03060 | 104° | 16km/h | 19202m | 5.9m/s | -55.4°C | 1.4% | 0hPa | 0V | 00:00:00 | 00:00:00 | 00:00:00 | |
| KE7DJD | 2026-09-01 00:06:47 | 43.80188 | -116.03206 | 69° | 20km/h | 19095m | 6.5m/s | -55.4°C | 1.4% | 0hPa | 0V | 00:00:00 | 00:00:00 | 00:00:00 | |
| KE7DJD | 2026-09-01 00:06:06 | 43.80158 | -116.03512 | 93° | 26km/h | 18873m | 6.3m/s | -54.7°C | 1.4% | 0hPa | 0V | 00:00:00 | 00:00:00 | 00:00:00 | |
| KE7DJD | 2026-09-01 00:05:47 | 43.80125 | -116.03683 | 59° | 26km/h | 18768m | 5.2m/s | -55.1°C | 1.4% | 0hPa | 0V | 00:00:00 | 00:00:00 | 00:00:00 | |
| KE7DJD | 2026-09-01 00:05:25 | 43.80065 | -116.03851 | 72° | 24km/h | 18663m | 5.6m/s | -56.0°C | 1.5% | 0hPa | 0V | 00:00:00 | 00:00:00 | 00:00:00 | |
| KE7DJD | 2026-09-01 00:05:03 | 43.79990 | -116.04086 | 60° | 44km/h | 18562m | 3.6m/s | -55.9°C | 1.4% | 0hPa | 0V | 00:00:00 | 00:00:00 | 00:00:00 | |
| KE7DJD | 2026-09-01 00:04:43 | 43.79881 | -116.04278 | 45° | 24km/h | 18463m | 3.8m/s | -55.6°C | 1.4% | 0hPa | 0V | 00:00:00 | 00:00:00 | 00:00:00 | |
| KE7DJD | 2026-09-01 00:04:23 | 43.79772 | -116.04376 | 7° | 26km/h | 18368m | 4.5m/s | -55.5°C | 1.5% | 0hPa | 0V | 00:00:00 | 00:00:00 | 00:00:00 | |
| KE7DJD | 2026-09-01 00:04:02 | 43.79686 | -116.04458 | 56° | 16km/h | 18271m | 4.3m/s | -55.5°C | 1.4% | 0hPa | 0V | 00:00:00 | 00:00:00 | 00:00:00 | |
| KE7DJD | 2026-09-01 00:03:46 | 43.79620 | -116.04599 | 69° | 26km/h | 18175m | 5.9m/s | -55.5°C | 1.4% | 0hPa | 0V | 00:00:00 | 00:00:00 | 00:00:00 | |
| KE7DJD | 2026-09-01 00:03:35 | 43.79561 | -116.04832 | 68° | 37km/h | 18073m | 4.7m/s | -56.1°C | 1.5% | 0hPa | 0V | 00:00:00 | 00:00:00 | 00:00:00 | |
| KE7DJD | 2026-09-01 00:03:21 | 43.79458 | -116.05114 | 66° | 57km/h | 17980m | 3.6m/s | -56.3°C | 1.5% | 0hPa | 0V | 00:00:00 | 00:00:00 | 00:00:00 | |
| KE7DJD | 2026-09-01 00:02:53 | 43.79293 | -116.05428 | 57° | 57km/h | 17882m | 6.1m/s | -56.1°C | 1.5% | 0hPa | 0V | 00:00:00 | 00:00:00 | 00:00:00 | |
| KE7DJD | 2026-09-01 00:02:25 | 43.79100 | -116.05715 | 42° | 57km/h | 17786m | 5.7m/s | -56.1°C | 1.6% | 0hPa | 0V | 00:00:00 | 00:00:00 | 00:00:00 | |
| KE7DJD | 2026-09-01 00:01:50 | 43.78706 | -116.06143 | 42° | 37km/h | 17575m | 3.5m/s | -56.1°C | 1.6% | 0hPa | 0V | 00:00:00 | 00:00:00 | 00:00:00 | |
| KE7DJD | 2026-09-01 00:01:25 | 43.78614 | -116.06320 | 62° | 33km/h | 17475m | 4.2m/s | -56.2°C | 1.6% | 0hPa | 0V | 00:00:00 | 00:00:00 | 00:00:00 | |
| KE7DJD | 2026-09-01 00:00:39 | 43.78461 | -116.06694 | 69° | 35km/h | 17286m | 4.1m/s | -56.5°C | 1.6% | 0hPa | 0V | 00:00:00 | 00:00:00 | 00:00:00 | |
| KE7DJD | 2026-09-01 00:00:23 | 43.78371 | -116.06898 | 57° | 37km/h | 17192m | 3.9m/s | -56.9°C | 1.7% | 0hPa | 0V | 00:00:00 | 00:00:00 | 00:00:00 | |
| KE7DJD | 2026-08-31 23:59:56 | 43.78281 | -116.07144 | 57° | 42km/h | 17097m | 5.3m/s | -57.0°C | 1.7% | 0hPa | 0V | 00:00:00 | 00:00:00 | 00:00:00 | |
| KE7DJD | 2026-08-31 23:59:36 | 43.78136 | -116.07375 | 54° | 44km/h | 17003m | 3.9m/s | -56.8°C | 1.7% | 0hPa | 0V | 00:00:00 | 00:00:00 | 00:00:00 | |
| KE7DJD | 2026-08-31 23:59:15 | 43.77998 | -116.07617 | 46° | 38km/h | 16905m | 4.3m/s | -56.8°C | 1.7% | 0hPa | 0V | 00:00:00 | 00:00:00 | 00:00:00 | |
| KE7DJD | 2026-08-31 23:58:55 | 43.77833 | -116.07864 | 52° | 49km/h | 16813m | 4.3m/s | -56.7°C | 1.7% | 0hPa | 0V | 00:00:00 | 00:00:00 | 00:00:00 | |
| KE7DJD | 2026-08-31 23:58:34 | 43.77661 | -116.08165 | 62° | 60km/h | 16716m | 4.9m/s | -57.3°C | 1.8% | 0hPa | 0V | 00:00:00 | 00:00:00 | 00:00:00 | |
| KE7DJD | 2026-08-31 23:58:14 | 43.77487 | -116.08446 | 39° | 53km/h | 16622m | 5.6m/s | -57.2°C | 1.8% | 0hPa | 0V | 00:00:00 | 00:00:00 | 00:00:00 | |
| KE7DJD | 2026-08-31 23:57:54 | 43.77275 | -116.08681 | 33° | 51km/h | 16529m | 5.2m/s | -57.2°C | 1.8% | 0hPa | 0V | 00:00:00 | 00:00:00 | 00:00:00 | |
| KE7DJD | 2026-08-31 23:57:33 | 43.77071 | -116.08864 | 43° | 40km/h | 16427m | 3.5m/s | -57.0°C | 1.9% | 0hPa | 0V | 00:00:00 | 00:00:00 | 00:00:00 | |
| KE7DJD | 2026-08-31 23:57:12 | 43.76903 | -116.09083 | 53° | 44km/h | 16331m | 4.2m/s | -57.2°C | 1.9% | 0hPa | 0V | 00:00:00 | 00:00:00 | 00:00:00 | |
| KE7DJD | 2026-08-31 23:56:52 | 43.76746 | -116.09302 | 47° | 46km/h | 16237m | 4.0m/s | -57.1°C | 1.9% | 0hPa | 0V | 00:00:00 | 00:00:00 | 00:00:00 | |
| KE7DJD | 2026-08-31 23:56:31 | 43.76586 | -116.09530 | 59° | 42km/h | 16144m | 5.0m/s | -56.9°C | 1.9% | 0hPa | 0V | 00:00:00 | 00:00:00 | 00:00:00 | |
| KE7DJD | 2026-08-31 23:56:11 | 43.76446 | -116.09812 | 52° | 53km/h | 16053m | 3.1m/s | -56.9°C | 1.9% | 0hPa | 0V | 00:00:00 | 00:00:00 | 00:00:00 | |
| KE7DJD | 2026-08-31 23:55:51 | 43.76288 | -116.10153 | 53° | 53km/h | 15959m | 4.4m/s | -57.3°C | 2.0% | 0hPa | 0V | 00:00:00 | 00:00:00 | 00:00:00 | |
| KE7DJD | 2026-08-31 23:55:31 | 43.76086 | -116.10468 | 47° | 58km/h | 15864m | 3.6m/s | -57.2°C | 2.0% | 0hPa | 0V | 00:00:00 | 00:00:00 | 00:00:00 | |
| KE7DJD | 2026-08-31 23:55:10 | 43.75877 | -116.10723 | 43° | 58km/h | 15771m | 6.4m/s | -57.1°C | 2.0% | 0hPa | 0V | 00:00:00 | 00:00:00 | 00:00:00 | |
| KE7DJD | 2026-08-31 23:54:50 | 43.75682 | -116.10993 | 48° | 58km/h | 15673m | 5.7m/s | -56.9°C | 2.0% | 0hPa | 0V | 00:00:00 | 00:00:00 | 00:00:00 | |
| KE7DJD | 2026-08-31 23:54:29 | 43.75507 | -116.11275 | 47° | 53km/h | 15576m | 5.4m/s | -56.7°C | 2.0% | 0hPa | 0V | 00:00:00 | 00:00:00 | 00:00:00 | |
| KE7DJD | 2026-08-31 23:54:08 | 43.75330 | -116.11522 | 44° | 46km/h | 15480m | 4.6m/s | -57.0°C | 2.0% | 0hPa | 0V | 00:00:00 | 00:00:00 | 00:00:00 | |
| KE7DJD | 2026-08-31 23:53:49 | 43.75175 | -116.11754 | 53° | 46km/h | 15384m | 3.1m/s | -56.8°C | 2.1% | 0hPa | 0V | 00:00:00 | 00:00:00 | 00:00:00 | |
| KE7DJD | 2026-08-31 23:53:29 | 43.75021 | -116.12000 | 54° | 46km/h | 15292m | 4.2m/s | -57.0°C | 2.1% | 0hPa | 0V | 00:00:00 | 00:00:00 | 00:00:00 | |
| KE7DJD | 2026-08-31 23:53:09 | 43.74875 | -116.12257 | 60° | 51km/h | 15203m | 5.9m/s | -57.5°C | 2.2% | 0hPa | 0V | 00:00:00 | 00:00:00 | 00:00:00 | |
| KE7DJD | 2026-08-31 23:52:48 | 43.74674 | -116.12536 | 43° | 57km/h | 15114m | 5.3m/s | -57.9°C | 2.5% | 0hPa | 0V | 00:00:00 | 00:00:00 | 00:00:00 | |
| KE7DJD | 2026-08-31 23:52:28 | 43.74452 | -116.12787 | 38° | 57km/h | 15021m | 4.5m/s | -58.3°C | 2.5% | 0hPa | 0V | 00:00:00 | 00:00:00 | 00:00:00 | |
| KE7DJD | 2026-08-31 23:52:08 | 43.74264 | -116.13018 | 53° | 44km/h | 14931m | 5.5m/s | -58.2°C | 2.7% | 0hPa | 0V | 00:00:00 | 00:00:00 | 00:00:00 | |
| KE7DJD | 2026-08-31 23:51:47 | 43.74089 | -116.13272 | 54° | 55km/h | 14839m | 5.1m/s | -57.9°C | 2.7% | 0hPa | 0V | 00:00:00 | 00:00:00 | 00:00:00 | |
| KE7DJD | 2026-08-31 23:51:25 | 43.73885 | -116.13531 | 44° | 53km/h | 14744m | 5.0m/s | -57.8°C | 2.8% | 0hPa | 0V | 00:00:00 | 00:00:00 | 00:00:00 | |
| KE7DJD | 2026-08-31 23:51:05 | 43.73684 | -116.13750 | 30° | 42km/h | 14651m | 4.1m/s | -57.6°C | 2.8% | 0hPa | 0V | 00:00:00 | 00:00:00 | 00:00:00 | |
| KE7DJD | 2026-08-31 23:50:44 | 43.73527 | -116.13964 | 47° | 49km/h | 14557m | 3.5m/s | -57.6°C | 3.0% | 0hPa | 0V | 00:00:00 | 00:00:00 | 00:00:00 | |
| KE7DJD | 2026-08-31 23:50:34 | 43.73353 | -116.14239 | 43° | 55km/h | 14461m | 5.6m/s | -56.9°C | 3.2% | 0hPa | 0V | 00:00:00 | 00:00:00 | 00:00:00 | |
| KE7DJD | 2026-08-31 23:50:02 | 43.73170 | -116.14519 | 49° | 55km/h | 14366m | 4.9m/s | -57.2°C | 3.7% | 0hPa | 0V | 00:00:00 | 00:00:00 | 00:00:00 | |
| KE7DJD | 2026-08-31 23:49:42 | 43.72970 | -116.14775 | 39° | 57km/h | 14276m | 4.8m/s | -57.6°C | 4.1% | 0hPa | 0V | 00:00:00 | 00:00:00 | 00:00:00 | |
| KE7DJD | 2026-08-31 23:49:21 | 43.72756 | -116.15076 | 49° | 60km/h | 14184m | 4.6m/s | -57.9°C | 4.1% | 0hPa | 0V | 00:00:00 | 00:00:00 | 00:00:00 | |
| KE7DJD | 2026-08-31 23:49:01 | 43.72516 | -116.15408 | 43° | 73km/h | 14095m | 4.3m/s | -58.2°C | 4.4% | 0hPa | 0V | 00:00:00 | 00:00:00 | 00:00:00 | |
| KE7DJD | 2026-08-31 23:48:40 | 43.72250 | -116.15692 | 36° | 64km/h | 13999m | 5.0m/s | -58.1°C | 4.6% | 0hPa | 0V | 00:00:00 | 00:00:00 | 00:00:00 | |
| KE7DJD | 2026-08-31 23:48:20 | 43.71983 | -116.15898 | 35° | 55km/h | 13904m | 5.2m/s | -57.7°C | 4.6% | 0hPa | 0V | 00:00:00 | 00:00:00 | 00:00:00 | |
| KE7DJD | 2026-08-31 23:48:00 | 43.71758 | -116.16067 | 31° | 49km/h | 13814m | 3.2m/s | -57.5°C | 4.7% | 0hPa | 0V | 00:00:00 | 00:00:00 | 00:00:00 | |
| KE7DJD | 2026-08-31 23:47:39 | 43.71520 | -116.16229 | 34° | 46km/h | 13721m | 4.3m/s | -57.3°C | 4.7% | 0hPa | 0V | 00:00:00 | 00:00:00 | 00:00:00 | |
| KE7DJD | 2026-08-31 23:47:18 | 43.71299 | -116.16376 | 33° | 49km/h | 13633m | 3.2m/s | -56.7°C | 4.6% | 0hPa | 0V | 00:00:00 | 00:00:00 | 00:00:00 | |
| KE7DJD | 2026-08-31 23:46:58 | 43.71055 | -116.16518 | 29° | 55km/h | 13544m | 4.4m/s | -56.2°C | 4.7% | 0hPa | 0V | 00:00:00 | 00:00:00 | 00:00:00 | |
| KE7DJD | 2026-08-31 23:46:39 | 43.70787 | -116.16685 | 30° | 58km/h | 13459m | 4.5m/s | -56.1°C | 4.7% | 0hPa | 0V | 00:00:00 | 00:00:00 | 00:00:00 | |
| KE7DJD | 2026-08-31 23:46:18 | 43.70538 | -116.16856 | 43° | 44km/h | 13363m | 4.4m/s | -55.9°C | 5.4% | 0hPa | 0V | 00:00:00 | 00:00:00 | 00:00:00 | |
| KE7DJD | 2026-08-31 23:45:56 | 43.70310 | -116.16984 | 18° | 42km/h | 13237m | 3.8m/s | -55.9°C | 5.9% | 0hPa | 0V | 00:00:00 | 00:00:00 | 00:00:00 | |
| KE7DJD | 2026-08-31 23:45:35 | 43.70096 | -116.17112 | 24° | 38km/h | 13144m | 4.1m/s | -56.1°C | 6.5% | 0hPa | 0V | 00:00:00 | 00:00:00 | 00:00:00 | |
| KE7DJD | 2026-08-31 23:45:17 | 43.69908 | -116.17268 | 19° | 38km/h | 13054m | 5.8m/s | -56.5°C | 6.5% | 0hPa | 0V | 00:00:00 | 00:00:00 | 00:00:00 | |
| KE7DJD | 2026-08-31 23:44:54 | 43.69696 | -116.17358 | 10° | 42km/h | 12950m | 5.5m/s | -56.0°C | 6.4% | 0hPa | 0V | 00:00:00 | 00:00:00 | 00:00:00 | |
| KE7DJD | 2026-08-31 23:44:34 | 43.69486 | -116.17425 | 9° | 38km/h | 12855m | 4.9m/s | -56.3°C | 9.2% | 0hPa | 0V | 00:00:00 | 00:00:00 | 00:00:00 | |
| KE7DJD | 2026-08-31 23:44:15 | 43.69268 | -116.17499 | 9° | 42km/h | 12766m | 3.9m/s | -56.6°C | 10.5% | 0hPa | 0V | 00:00:00 | 00:00:00 | 00:00:00 | |
| KE7DJD | 2026-08-31 23:43:54 | 43.69056 | -116.17525 | 5° | 37km/h | 12678m | 4.0m/s | -56.9°C | 13.2% | 0hPa | 0V | 00:00:00 | 00:00:00 | 00:00:00 | |
| KE7DJD | 2026-08-31 23:43:33 | 43.68847 | -116.17580 | 4° | 35km/h | 12588m | 2.8m/s | -57.2°C | 16.1% | 0hPa | 0V | 00:00:00 | 00:00:00 | 00:00:00 | |
| KE7DJD | 2026-08-31 23:43:12 | 43.68630 | -116.17615 | 3° | 44km/h | 12498m | 4.7m/s | -57.3°C | 18.1% | 0hPa | 0V | 00:00:00 | 00:00:00 | 00:00:00 | |
| KE7DJD | 2026-08-31 23:42:52 | 43.68408 | -116.17621 | 4° | 46km/h | 12411m | 3.3m/s | -57.0°C | 18.7% | 0hPa | 0V | 00:00:00 | 00:00:00 | 00:00:00 | |
| KE7DJD | 2026-08-31 23:42:31 | 43.68157 | -116.17600 | 350° | 42km/h | 12319m | 5.7m/s | -56.6°C | 18.3% | 0hPa | 0V | 00:00:00 | 00:00:00 | 00:00:00 | |
| KE7DJD | 2026-08-31 23:42:11 | 43.67927 | -116.17528 | 347° | 46km/h | 12233m | 4.0m/s | -56.1°C | 18.7% | 0hPa | 0V | 00:00:00 | 00:00:00 | 00:00:00 | |
| KE7DJD | 2026-08-31 23:41:50 | 43.67725 | -116.17440 | 334° | 38km/h | 12142m | 4.0m/s | -56.0°C | 21.0% | 0hPa | 0V | 00:00:00 | 00:00:00 | 00:00:00 | |
| KE7DJD | 2026-08-31 23:41:30 | 43.67523 | -116.17343 | 346° | 42km/h | 12055m | 3.6m/s | -55.8°C | 21.3% | 0hPa | 0V | 00:00:00 | 00:00:00 | 00:00:00 | |
| KE7DJD | 2026-08-31 23:41:11 | 43.67316 | -116.17297 | 354° | 44km/h | 11967m | 4.8m/s | -55.3°C | 22.2% | 0hPa | 0V | 00:00:00 | 00:00:00 | 00:00:00 | |
| KE7DJD | 2026-08-31 23:40:49 | 43.67134 | -116.17218 | 339° | 29km/h | 11869m | 3.9m/s | -54.8°C | 23.0% | 0hPa | 0V | 00:00:00 | 00:00:00 | 00:00:00 | |
| KE7DJD | 2026-08-31 23:40:28 | 43.66972 | -116.17118 | 335° | 37km/h | 11778m | 5.5m/s | -54.4°C | 22.9% | 0hPa | 0V | 00:00:00 | 00:00:00 | 00:00:00 | |
| KE7DJD | 2026-08-31 23:40:08 | 43.66798 | -116.17019 | 337° | 40km/h | 11691m | 3.5m/s | -53.9°C | 23.2% | 0hPa | 0V | 00:00:00 | 00:00:00 | 00:00:00 | |
| KE7DJD | 2026-08-31 23:39:47 | 43.66617 | -116.16937 | 346° | 27km/h | 11599m | 5.8m/s | -53.5°C | 22.7% | 0hPa | 0V | 00:00:00 | 00:00:00 | 00:00:00 | |
| KE7DJD | 2026-08-31 23:39:26 | 43.66458 | -116.16866 | 350° | 33km/h | 11509m | 5.2m/s | -53.2°C | 21.7% | 0hPa | 0V | 00:00:00 | 00:00:00 | 00:00:00 | |
| KE7DJD | 2026-08-31 23:39:07 | 43.66313 | -116.16777 | 326° | 31km/h | 11423m | 3.5m/s | -52.6°C | 21.7% | 0hPa | 0V | 00:00:00 | 00:00:00 | 00:00:00 | |
| KE7DJD | 2026-08-31 23:38:45 | 43.66162 | -116.16651 | 334° | 40km/h | 11334m | 3.5m/s | -52.3°C | 23.6% | 0hPa | 0V | 00:00:00 | 00:00:00 | 00:00:00 | |
| KE7DJD | 2026-08-31 23:38:25 | 43.66021 | -116.16482 | 332° | 27km/h | 11223m | 4.2m/s | -51.3°C | 25.7% | 0hPa | 0V | 00:00:00 | 00:00:00 | 00:00:00 | |
| KE7DJD | 2026-08-31 23:38:04 | 43.65916 | -116.16302 | 306° | 37km/h | 11123m | 3.3m/s | -50.8°C | 28.5% | 0hPa | 0V | 00:00:00 | 00:00:00 | 00:00:00 | |
| KE7DJD | 2026-08-31 23:37:43 | 43.65817 | -116.16110 | 308° | 37km/h | 11034m | 3.5m/s | -50.2°C | 29.2% | 0hPa | 0V | 00:00:00 | 00:00:00 | 00:00:00 | |
| KE7DJD | 2026-08-31 23:37:22 | 43.65735 | -116.15932 | 301° | 20km/h | 10940m | 5.4m/s | -49.3°C | 29.3% | 0hPa | 0V | 00:00:00 | 00:00:00 | 00:00:00 | |
| KE7DJD | 2026-08-31 23:37:02 | 43.65666 | -116.15779 | 296° | 26km/h | 10856m | 3.4m/s | -48.8°C | 30.4% | 0hPa | 0V | 00:00:00 | 00:00:00 | 00:00:00 | |
| KE7DJD | 2026-08-31 23:36:41 | 43.65591 | -116.15628 | 304° | 20km/h | 10769m | 4.9m/s | -48.2°C | 28.4% | 0hPa | 0V | 00:00:00 | 00:00:00 | 00:00:00 | |
| KE7DJD | 2026-08-31 23:36:21 | 43.65511 | -116.15504 | 321° | 24km/h | 10680m | 4.8m/s | -47.5°C | 33.1% | 0hPa | 0V | 00:00:00 | 00:00:00 | 00:00:00 | |
| KE7DJD | 2026-08-31 23:36:01 | 43.65406 | -116.15375 | 307° | 31km/h | 10593m | 4.9m/s | -46.8°C | 38.0% | 0hPa | 0V | 00:00:00 | 00:00:00 | 00:00:00 | |
| KE7DJD | 2026-08-31 23:35:39 | 43.65291 | -116.15241 | 316° | 26km/h | 10500m | 5.9m/s | -46.1°C | 41.7% | 0hPa | 0V | 00:00:00 | 00:00:00 | 00:00:00 | |
| KE7DJD | 2026-08-31 23:35:19 | 43.65193 | -116.15111 | 328° | 31km/h | 10414m | 5.0m/s | -45.2°C | 40.4% | 0hPa | 0V | 00:00:00 | 00:00:00 | 00:00:00 | |
| KE7DJD | 2026-08-31 23:34:58 | 43.65095 | -116.14987 | 319° | 18km/h | 10323m | 3.8m/s | -44.7°C | 28.1% | 0hPa | 0V | 00:00:00 | 00:00:00 | 00:00:00 | |
| KE7DJD | 2026-08-31 23:34:37 | 43.65002 | -116.14895 | 333° | 18km/h | 10231m | 3.8m/s | -43.9°C | 23.9% | 0hPa | 0V | 00:00:00 | 00:00:00 | 00:00:00 | |
| KE7DJD | 2026-08-31 23:34:17 | 43.64908 | -116.14833 | 313° | 22km/h | 10141m | 3.6m/s | -43.1°C | 30.4% | 0hPa | 0V | 00:00:00 | 00:00:00 | 00:00:00 | |
| KE7DJD | 2026-08-31 23:33:57 | 43.64816 | -116.14760 | 346° | 20km/h | 10054m | 4.8m/s | -42.6°C | 51.0% | 0hPa | 0V | 00:00:00 | 00:00:00 | 00:00:00 | |
| KE7DJD | 2026-08-31 23:33:37 | 43.64714 | -116.14676 | 335° | 27km/h | 9969m | 3.9m/s | -41.9°C | 54.0% | 0hPa | 0V | 00:00:00 | 00:00:00 | 00:00:00 | |
| KE7DJD | 2026-08-31 23:33:16 | 43.64608 | -116.14578 | 330° | 27km/h | 9879m | 3.6m/s | -41.1°C | 42.1% | 0hPa | 0V | 00:00:00 | 00:00:00 | 00:00:00 | |
| KE7DJD | 2026-08-31 23:32:55 | 43.64490 | -116.14498 | 331° | 24km/h | 9788m | 4.9m/s | -40.4°C | 32.2% | 0hPa | 0V | 00:00:00 | 00:00:00 | 00:00:00 | |
| KE7DJD | 2026-08-31 23:32:35 | 43.64364 | -116.14428 | 340° | 22km/h | 9700m | 5.9m/s | -39.6°C | 33.6% | 0hPa | 0V | 00:00:00 | 00:00:00 | 00:00:00 | |
| KE7DJD | 2026-08-31 23:32:15 | 43.64236 | -116.14347 | 338° | 31km/h | 9607m | 3.5m/s | -38.7°C | 32.7% | 0hPa | 0V | 00:00:00 | 00:00:00 | 00:00:00 | |
| KE7DJD | 2026-08-31 23:31:54 | 43.64097 | -116.14263 | 348° | 31km/h | 9519m | 4.2m/s | -38.1°C | 28.8% | 0hPa | 0V | 00:00:00 | 00:00:00 | 00:00:00 | |
| KE7DJD | 2026-08-31 23:31:32 | 43.63949 | -116.14172 | 337° | 37km/h | 9427m | 4.1m/s | -37.3°C | 27.2% | 0hPa | 0V | 00:00:00 | 00:00:00 | 00:00:00 | |
| KE7DJD | 2026-08-31 23:31:11 | 43.63802 | -116.14104 | 332° | 27km/h | 9333m | 3.6m/s | -36.4°C | 25.5% | 0hPa | 0V | 00:00:00 | 00:00:00 | 00:00:00 | |
| KE7DJD | 2026-08-31 23:30:51 | 43.63663 | -116.14059 | 358° | 22km/h | 9239m | 4.1m/s | -35.7°C | 29.5% | 0hPa | 0V | 00:00:00 | 00:00:00 | 00:00:00 | |
| KE7DJD | 2026-08-31 23:30:29 | 43.63542 | -116.14008 | 3° | 24km/h | 9147m | 3.8m/s | -34.9°C | 32.7% | 0hPa | 0V | 00:00:00 | 00:00:00 | 00:00:00 | |
| KE7DJD | 2026-08-31 23:30:09 | 43.63424 | -116.13951 | 342° | 26km/h | 9048m | 4.7m/s | -34.1°C | 36.1% | 0hPa | 0V | 00:00:00 | 00:00:00 | 00:00:00 | |
| KE7DJD | 2026-08-31 23:29:50 | 43.63326 | -116.13897 | 330° | 29km/h | 8955m | 4.2m/s | -33.2°C | 36.8% | 0hPa | 0V | 00:00:00 | 00:00:00 | 00:00:00 | |
| KE7DJD | 2026-08-31 23:29:28 | 43.63220 | -116.13847 | 334° | 20km/h | 8861m | 4.6m/s | -32.3°C | 34.0% | 0hPa | 0V | 00:00:00 | 00:00:00 | 00:00:00 | |
| KE7DJD | 2026-08-31 23:29:08 | 43.63118 | -116.13806 | 353° | 29km/h | 8769m | 4.9m/s | -31.7°C | 34.7% | 0hPa | 0V | 00:00:00 | 00:00:00 | 00:00:00 | |
| KE7DJD | 2026-08-31 23:28:47 | 43.63014 | -116.13759 | 354° | 22km/h | 8673m | 5.3m/s | -30.8°C | 29.9% | 0hPa | 0V | 00:00:00 | 00:00:00 | 00:00:00 | |
| KE7DJD | 2026-08-31 23:28:27 | 43.62911 | -116.13730 | 353° | 20km/h | 8583m | 3.5m/s | -29.9°C | 29.5% | 0hPa | 0V | 00:00:00 | 00:00:00 | 00:00:00 | |
| KE7DJD | 2026-08-31 23:28:07 | 43.62818 | -116.13704 | 321° | 11km/h | 8497m | 5.8m/s | -29.3°C | 29.8% | 0hPa | 0V | 00:00:00 | 00:00:00 | 00:00:00 | |
| KE7DJD | 2026-08-31 23:27:46 | 43.62706 | -116.13683 | 355° | 22km/h | 8396m | 5.0m/s | -28.6°C | 30.7% | 0hPa | 0V | 00:00:00 | 00:00:00 | 00:00:00 | |
| KE7DJD | 2026-08-31 23:27:25 | 43.62597 | -116.13656 | 329° | 20km/h | 8303m | 5.2m/s | -28.1°C | 35.6% | 0hPa | 0V | 00:00:00 | 00:00:00 | 00:00:00 | |
| KE7DJD | 2026-08-31 23:27:04 | 43.62473 | -116.13670 | 4° | 13km/h | 8208m | 3.2m/s | -27.3°C | 32.5% | 0hPa | 0V | 00:00:00 | 00:00:00 | 00:00:00 | |
| KE7DJD | 2026-08-31 23:26:43 | 43.62342 | -116.13673 | 30° | 26km/h | 8114m | 4.9m/s | -26.4°C | 30.1% | 0hPa | 0V | 00:00:00 | 00:00:00 | 00:00:00 | |
| KE7DJD | 2026-08-31 23:26:23 | 43.62233 | -116.13701 | 10° | 27km/h | 8016m | 3.5m/s | -25.5°C | 27.4% | 0hPa | 0V | 00:00:00 | 00:00:00 | 00:00:00 | |
| KE7DJD | 2026-08-31 23:26:02 | 43.62113 | -116.13746 | 14° | 26km/h | 7921m | 3.9m/s | -24.7°C | 25.2% | 0hPa | 0V | 00:00:00 | 00:00:00 | 00:00:00 | |
| KE7DJD | 2026-08-31 23:25:41 | 43.61990 | -116.13822 | 36° | 22km/h | 7831m | 3.1m/s | -24.0°C | 21.1% | 0hPa | 0V | 00:00:00 | 00:00:00 | 00:00:00 | |
| KE7DJD | 2026-08-31 23:25:21 | 43.61875 | -116.13923 | 35° | 24km/h | 7749m | 3.1m/s | -23.4°C | 17.7% | 0hPa | 0V | 00:00:00 | 00:00:00 | 00:00:00 | |
| KE7DJD | 2026-08-31 23:25:00 | 43.61747 | -116.14023 | 35° | 31km/h | 7660m | 3.6m/s | -22.6°C | 16.7% | 0hPa | 0V | 00:00:00 | 00:00:00 | 00:00:00 | |
| KE7DJD | 2026-08-31 23:24:40 | 43.61600 | -116.14104 | 29° | 37km/h | 7576m | 4.6m/s | -22.2°C | 12.6% | 0hPa | 0V | 00:00:00 | 00:00:00 | 00:00:00 | |
| KE7DJD | 2026-08-31 23:24:20 | 43.61461 | -116.14195 | 31° | 26km/h | 7490m | 4.0m/s | -21.7°C | 12.5% | 0hPa | 0V | 00:00:00 | 00:00:00 | 00:00:00 | |
| KE7DJD | 2026-08-31 23:23:59 | 43.61293 | -116.14306 | 32° | 38km/h | 7399m | 4.9m/s | -21.2°C | 13.7% | 0hPa | 0V | 00:00:00 | 00:00:00 | 00:00:00 | |
| KE7DJD | 2026-08-31 23:23:38 | 43.61114 | -116.14429 | 28° | 38km/h | 7306m | 3.7m/s | -20.2°C | 12.6% | 0hPa | 0V | 00:00:00 | 00:00:00 | 00:00:00 | |
| KE7DJD | 2026-08-31 23:23:18 | 43.60950 | -116.14549 | 24° | 35km/h | 7216m | 4.9m/s | -19.4°C | 13.1% | 0hPa | 0V | 00:00:00 | 00:00:00 | 00:00:00 | |
| KE7DJD | 2026-08-31 23:22:57 | 43.60766 | -116.14658 | 29° | 38km/h | 7116m | 3.7m/s | -18.5°C | 17.9% | 0hPa | 0V | 00:00:00 | 00:00:00 | 00:00:00 | |
| KE7DJD | 2026-08-31 23:22:37 | 43.60601 | -116.14730 | 15° | 35km/h | 7022m | 6.7m/s | -17.9°C | 30.6% | 0hPa | 0V | 00:00:00 | 00:00:00 | 00:00:00 | |
| KE7DJD | 2026-08-31 23:22:16 | 43.60453 | -116.14847 | 19° | 33km/h | 6907m | 4.5m/s | -17.2°C | 39.4% | 0hPa | 0V | 00:00:00 | 00:00:00 | 00:00:00 | |
| KE7DJD | 2026-08-31 23:21:56 | 43.60338 | -116.14959 | 30° | 29km/h | 6789m | 4.7m/s | -17.7°C | 63.6% | 0hPa | 0V | 00:00:00 | 00:00:00 | 00:00:00 | |
| KE7DJD | 2026-08-31 23:21:35 | 43.60236 | -116.15105 | 43° | 31km/h | 6690m | 5.2m/s | -16.9°C | 53.4% | 0hPa | 0V | 00:00:00 | 00:00:00 | 00:00:00 | |
| KE7DJD | 2026-08-31 23:21:15 | 43.60145 | -116.15250 | 45° | 27km/h | 6593m | 4.2m/s | -16.4°C | 59.3% | 0hPa | 0V | 00:00:00 | 00:00:00 | 00:00:00 | |
| KE7DJD | 2026-08-31 23:20:54 | 43.60042 | -116.15404 | 55° | 29km/h | 6495m | 4.7m/s | -15.8°C | 60.3% | 0hPa | 0V | 00:00:00 | 00:00:00 | 00:00:00 | |
| KE7DJD | 2026-08-31 23:20:33 | 43.59929 | -116.15523 | 37° | 29km/h | 6396m | 5.7m/s | -15.1°C | 56.3% | 0hPa | 0V | 00:00:00 | 00:00:00 | 00:00:00 | |
| KE7DJD | 2026-08-31 23:20:12 | 43.59822 | -116.15647 | 56° | 26km/h | 6297m | 6.2m/s | -14.2°C | 41.2% | 0hPa | 0V | 00:00:00 | 00:00:00 | 00:00:00 | |
| KE7DJD | 2026-08-31 23:19:51 | 43.59717 | -116.15774 | 49° | 35km/h | 6193m | 5.3m/s | -13.3°C | 26.5% | 0hPa | 0V | 00:00:00 | 00:00:00 | 00:00:00 | |
| KE7DJD | 2026-08-31 23:19:30 | 43.59599 | -116.15897 | 33° | 33km/h | 6076m | 4.2m/s | -12.4°C | 15.4% | 0hPa | 0V | 00:00:00 | 00:00:00 | 00:00:00 | |
| KE7DJD | 2026-08-31 23:19:09 | 43.59467 | -116.15965 | 21° | 33km/h | 5973m | 5.5m/s | -11.5°C | 13.9% | 0hPa | 0V | 00:00:00 | 00:00:00 | 00:00:00 | |
| KE7DJD | 2026-08-31 23:18:48 | 43.59338 | -116.16056 | 19° | 22km/h | 5874m | 4.2m/s | -10.8°C | 15.2% | 0hPa | 0V | 00:00:00 | 00:00:00 | 00:00:00 | |
| KE7DJD | 2026-08-31 23:18:28 | 43.59206 | -116.16145 | 24° | 20km/h | 5776m | 4.4m/s | -10.0°C | 16.0% | 0hPa | 0V | 00:00:00 | 00:00:00 | 00:00:00 | |
| KE7DJD | 2026-08-31 23:18:08 | 43.59092 | -116.16208 | 49° | 16km/h | 5689m | 3.6m/s | -9.3°C | 22.2% | 0hPa | 0V | 00:00:00 | 00:00:00 | 00:00:00 | |
| KE7DJD | 2026-08-31 23:17:48 | 43.58979 | -116.16269 | 4° | 24km/h | 5601m | 4.8m/s | -8.9°C | 25.0% | 0hPa | 0V | 00:00:00 | 00:00:00 | 00:00:00 | |
| KE7DJD | 2026-08-31 23:17:27 | 43.58867 | -116.16338 | 15° | 26km/h | 5508m | 4.6m/s | -8.2°C | 24.7% | 0hPa | 0V | 00:00:00 | 00:00:00 | 00:00:00 | |
| KE7DJD | 2026-08-31 23:17:07 | 43.58755 | -116.16418 | 42° | 24km/h | 5420m | 6.1m/s | -7.6°C | 25.2% | 0hPa | 0V | 00:00:00 | 00:00:00 | 00:00:00 | |
| KE7DJD | 2026-08-31 23:16:46 | 43.58651 | -116.16494 | 7° | 24km/h | 5331m | 5.0m/s | -7.1°C | 25.9% | 0hPa | 0V | 00:00:00 | 00:00:00 | 00:00:00 | |
| KE7DJD | 2026-08-31 23:16:26 | 43.58540 | -116.16590 | 48° | 20km/h | 5243m | 4.8m/s | -6.7°C | 24.9% | 0hPa | 0V | 00:00:00 | 00:00:00 | 00:00:00 | |
| KE7DJD | 2026-08-31 23:16:06 | 43.58403 | -116.16724 | 34° | 44km/h | 5151m | 4.6m/s | -5.8°C | 22.9% | 0hPa | 0V | 00:00:00 | 00:00:00 | 00:00:00 | |
| KE7DJD | 2026-08-31 23:15:45 | 43.58243 | -116.16868 | 50° | 44km/h | 5061m | 4.1m/s | -5.1°C | 21.0% | 0hPa | 0V | 00:00:00 | 00:00:00 | 00:00:00 | |
| KE7DJD | 2026-08-31 23:15:25 | 43.58117 | -116.17043 | 44° | 33km/h | 4967m | 4.5m/s | -4.8°C | 19.0% | 0hPa | 0V | 00:00:00 | 00:00:00 | 00:00:00 | |
| KE7DJD | 2026-08-31 23:15:04 | 43.57980 | -116.17188 | 50° | 18km/h | 4849m | 6.9m/s | -4.1°C | 28.2% | 0hPa | 0V | 00:00:00 | 00:00:00 | 00:00:00 | |
| KE7DJD | 2026-08-31 23:14:43 | 43.57863 | -116.17367 | 60° | 51km/h | 4725m | 5.9m/s | -3.7°C | 55.2% | 0hPa | 0V | 00:00:00 | 00:00:00 | 00:00:00 | |
| KE7DJD | 2026-08-31 23:14:23 | 43.57759 | -116.17599 | 70° | 35km/h | 4625m | 4.3m/s | -2.8°C | 59.5% | 0hPa | 0V | 00:00:00 | 00:00:00 | 00:00:00 | |
| KE7DJD | 2026-08-31 23:14:03 | 43.57660 | -116.17848 | 66° | 47km/h | 4526m | 3.7m/s | -2.0°C | 62.4% | 0hPa | 0V | 00:00:00 | 00:00:00 | 00:00:00 | |
| KE7DJD | 2026-08-31 23:13:41 | 43.57576 | -116.18136 | 67° | 35km/h | 4429m | 4.0m/s | -1.1°C | 66.8% | 0hPa | 0V | 00:00:00 | 00:00:00 | 00:00:00 | |
| KE7DJD | 2026-08-31 23:13:00 | 43.57390 | -116.18654 | 63° | 33km/h | 4227m | 4.1m/s | 0.7°C | 50.3% | 0hPa | 0V | 00:00:00 | 00:00:00 | 00:00:00 | |
| KE7DJD | 2026-08-31 23:12:40 | 43.57327 | -116.18926 | 74° | 27km/h | 4138m | 3.3m/s | 1.4°C | 57.0% | 0hPa | 0V | 00:00:00 | 00:00:00 | 00:00:00 | |
| KE7DJD | 2026-08-31 23:12:20 | 43.57235 | -116.19168 | 49° | 44km/h | 4032m | 5.4m/s | 2.2°C | 46.0% | 0hPa | 0V | 00:00:00 | 00:00:00 | 00:00:00 | |
| KE7DJD | 2026-08-31 23:11:58 | 43.57158 | -116.19414 | 50° | 38km/h | 3920m | 4.2m/s | 3.2°C | 46.5% | 0hPa | 0V | 00:00:00 | 00:00:00 | 00:00:00 | |
| KE7DJD | 2026-08-31 23:11:37 | 43.57090 | -116.19620 | 78° | 31km/h | 3807m | 7.0m/s | 4.1°C | 46.9% | 0hPa | 0V | 00:00:00 | 00:00:00 | 00:00:00 | |
| KE7DJD | 2026-08-31 23:11:16 | 43.57060 | -116.19867 | 67° | 31km/h | 3698m | 7.1m/s | 5.2°C | 25.7% | 0hPa | 0V | 00:00:00 | 00:00:00 | 00:00:00 | |
| KE7DJD | 2026-08-31 23:10:55 | 43.57024 | -116.20053 | 76° | 27km/h | 3588m | 6.9m/s | 6.0°C | 17.1% | 0hPa | 0V | 00:00:00 | 00:00:00 | 00:00:00 | |
| KE7DJD | 2026-08-31 23:10:34 | 43.57031 | -116.20234 | 86° | 35km/h | 3491m | 4.5m/s | 6.8°C | 14.6% | 0hPa | 0V | 00:00:00 | 00:00:00 | 00:00:00 | |
| KE7DJD | 2026-08-31 23:10:13 | 43.56993 | -116.20407 | 98° | 18km/h | 3393m | 4.5m/s | 7.5°C | 17.9% | 0hPa | 0V | 00:00:00 | 00:00:00 | 00:00:00 | |
| KE7DJD | 2026-08-31 23:09:52 | 43.56995 | -116.20583 | 103° | 31km/h | 3284m | 5.2m/s | 8.2°C | 13.9% | 0hPa | 0V | 00:00:00 | 00:00:00 | 00:00:00 | |
| KE7DJD | 2026-08-31 23:09:31 | 43.56985 | -116.20708 | 57° | 20km/h | 3179m | 4.6m/s | 8.8°C | 16.5% | 0hPa | 0V | 00:00:00 | 00:00:00 | 00:00:00 | |
| KE7DJD | 2026-08-31 23:09:11 | 43.56959 | -116.20800 | 68° | 24km/h | 3065m | 5.3m/s | 10.0°C | 16.3% | 0hPa | 0V | 00:00:00 | 00:00:00 | 00:00:00 | |
| KE7DJD | 2026-08-31 23:08:51 | 43.56931 | -116.20934 | 124° | 9km/h | 2946m | 4.7m/s | 11.0°C | 16.3% | 0hPa | 0V | 00:00:00 | 00:00:00 | 00:00:00 | |
| KE7DJD | 2026-08-31 23:08:29 | 43.56897 | -116.21056 | 48° | 22km/h | 2850m | 4.4m/s | 11.9°C | 17.1% | 0hPa | 0V | 00:00:00 | 00:00:00 | 00:00:00 | |
| KE7DJD | 2026-08-31 23:08:08 | 43.56875 | -116.21167 | 39° | 9km/h | 2730m | 5.4m/s | 12.8°C | 19.3% | 0hPa | 0V | 00:00:00 | 00:00:00 | 00:00:00 | |
| KE7DJD | 2026-08-31 23:07:48 | 43.56851 | -116.21279 | 111° | 22km/h | 2616m | 6.1m/s | 13.9°C | 19.5% | 0hPa | 0V | 00:00:00 | 00:00:00 | 00:00:00 | |
| KE7DJD | 2026-08-31 23:07:28 | 43.56837 | -116.21368 | 28° | 16km/h | 2502m | 6.6m/s | 14.4°C | 22.3% | 0hPa | 0V | 00:00:00 | 00:00:00 | 00:00:00 | |
| KE7DJD | 2026-08-31 23:07:07 | 43.56820 | -116.21361 | 55° | 9km/h | 2392m | 4.6m/s | 15.3°C | 21.8% | 0hPa | 0V | 00:00:00 | 00:00:00 | 00:00:00 | |
| KE7DJD | 2026-08-31 23:06:47 | 43.56776 | -116.21336 | 220° | 9km/h | 2289m | 6.3m/s | 16.3°C | 20.8% | 0hPa | 0V | 00:00:00 | 00:00:00 | 00:00:00 | |
| KE7DJD | 2026-08-31 23:06:26 | 43.56749 | -116.21302 | 225° | 9km/h | 2183m | 4.1m/s | 17.1°C | 20.4% | 0hPa | 0V | 00:00:00 | 00:00:00 | 00:00:00 | |
| KE7DJD | 2026-08-31 23:06:06 | 43.56729 | -116.21271 | 262° | 16km/h | 2085m | 5.2m/s | 17.9°C | 19.4% | 0hPa | 0V | 00:00:00 | 00:00:00 | 00:00:00 | |
| KE7DJD | 2026-08-31 23:05:45 | 43.56697 | -116.21171 | 299° | 20km/h | 1970m | 6.9m/s | 18.9°C | 18.0% | 0hPa | 0V | 00:00:00 | 00:00:00 | 00:00:00 | |
| KE7DJD | 2026-08-31 23:05:25 | 43.56677 | -116.21092 | 306° | 18km/h | 1844m | 7.7m/s | 20.0°C | 17.1% | 0hPa | 0V | 00:00:00 | 00:00:00 | 00:00:00 |